<?xml version="1.0" encoding="UTF-8" standalone="no" ?>
<gpx xmlns="http://www.topografix.com/GPX/1/1" xmlns:xsi="http://www.w3.org/2001/XMLSchema-instance" xsi:schemaLocation="http://www.topografix.com/GPX/1/1 http://www.topografix.com/GPX/1/1/gpx.xsd" version="1.1" creator="VisuGPX - https://www.visugpx.com">
  <metadata>
    <name>13527543-les destourbe piste ++</name>
  </metadata>
  <trk>
    <name><![CDATA[13527543-les destourbe piste ++]]></name>
    <extensions>
      <line xmlns="http://www.topografix.com/GPX/gpx_style/0/2">
        <color>0000FF</color>
        <width>4</width>
      </line>
    </extensions>
    <trkseg>
      <trkpt lat="43.85172" lon="6.508">
        <ele>747</ele>
        <time>2021-08-13T18:00:29.000Z</time>
      </trkpt>
      <trkpt lat="43.85168" lon="6.50791">
        <ele>747</ele>
        <time>2021-08-13T18:00:31.138Z</time>
      </trkpt>
      <trkpt lat="43.85167" lon="6.50785">
        <ele>747</ele>
        <time>2021-08-13T18:00:32.383Z</time>
      </trkpt>
      <trkpt lat="43.85165" lon="6.5078">
        <ele>747</ele>
        <time>2021-08-13T18:00:33.539Z</time>
      </trkpt>
      <trkpt lat="43.8516" lon="6.50773">
        <ele>747</ele>
        <time>2021-08-13T18:00:35.531Z</time>
      </trkpt>
      <trkpt lat="43.85157" lon="6.50772">
        <ele>747</ele>
        <time>2021-08-13T18:00:36.396Z</time>
      </trkpt>
      <trkpt lat="43.85155" lon="6.50771">
        <ele>747</ele>
        <time>2021-08-13T18:00:36.992Z</time>
      </trkpt>
      <trkpt lat="43.8515" lon="6.50771">
        <ele>747</ele>
        <time>2021-08-13T18:00:38.394Z</time>
      </trkpt>
      <trkpt lat="43.85147" lon="6.50773">
        <ele>746</ele>
        <time>2021-08-13T18:00:38.769Z</time>
      </trkpt>
      <trkpt lat="43.85144" lon="6.50776">
        <ele>746</ele>
        <time>2021-08-13T18:00:39.806Z</time>
      </trkpt>
      <trkpt lat="43.8514" lon="6.50782">
        <ele>746</ele>
        <time>2021-08-13T18:00:41.458Z</time>
      </trkpt>
      <trkpt lat="43.8514" lon="6.50783">
        <ele>746</ele>
        <time>2021-08-13T18:00:41.660Z</time>
      </trkpt>
      <trkpt lat="43.85136" lon="6.50788">
        <ele>746</ele>
        <time>2021-08-13T18:00:43.170Z</time>
      </trkpt>
      <trkpt lat="43.85128" lon="6.50796">
        <ele>746</ele>
        <time>2021-08-13T18:00:45.936Z</time>
      </trkpt>
      <trkpt lat="43.85115" lon="6.50803">
        <ele>746</ele>
        <time>2021-08-13T18:00:49.846Z</time>
      </trkpt>
      <trkpt lat="43.85108" lon="6.50806">
        <ele>746</ele>
        <time>2021-08-13T18:00:51.900Z</time>
      </trkpt>
      <trkpt lat="43.85095" lon="6.50812">
        <ele>746</ele>
        <time>2021-08-13T18:00:55.742Z</time>
      </trkpt>
      <trkpt lat="43.85071" lon="6.50824">
        <ele>745</ele>
        <time>2021-08-13T18:00:59.062Z</time>
      </trkpt>
      <trkpt lat="43.85062" lon="6.50829">
        <ele>744</ele>
        <time>2021-08-13T18:01:00.153Z</time>
      </trkpt>
      <trkpt lat="43.85026" lon="6.50848">
        <ele>744</ele>
        <time>2021-08-13T18:01:10.953Z</time>
      </trkpt>
      <trkpt lat="43.85019" lon="6.50852">
        <ele>744</ele>
        <time>2021-08-13T18:01:13.076Z</time>
      </trkpt>
      <trkpt lat="43.84938" lon="6.50894">
        <ele>740</ele>
        <time>2021-08-13T18:01:23.618Z</time>
      </trkpt>
      <trkpt lat="43.84929" lon="6.509">
        <ele>739</ele>
        <time>2021-08-13T18:01:24.741Z</time>
      </trkpt>
      <trkpt lat="43.84907" lon="6.50912">
        <ele>737</ele>
        <time>2021-08-13T18:01:27.401Z</time>
      </trkpt>
      <trkpt lat="43.84894" lon="6.50923">
        <ele>737</ele>
        <time>2021-08-13T18:01:31.671Z</time>
      </trkpt>
      <trkpt lat="43.84882" lon="6.50937">
        <ele>736</ele>
        <time>2021-08-13T18:01:33.323Z</time>
      </trkpt>
      <trkpt lat="43.84869" lon="6.50962">
        <ele>737</ele>
        <time>2021-08-13T18:01:43.874Z</time>
      </trkpt>
      <trkpt lat="43.84824" lon="6.5105">
        <ele>732</ele>
        <time>2021-08-13T18:01:52.040Z</time>
      </trkpt>
      <trkpt lat="43.84819" lon="6.51061">
        <ele>732</ele>
        <time>2021-08-13T18:01:54.669Z</time>
      </trkpt>
      <trkpt lat="43.84801" lon="6.51096">
        <ele>732</ele>
        <time>2021-08-13T18:02:03.361Z</time>
      </trkpt>
      <trkpt lat="43.84797" lon="6.51111">
        <ele>732</ele>
        <time>2021-08-13T18:02:06.595Z</time>
      </trkpt>
      <trkpt lat="43.8479" lon="6.51133">
        <ele>733</ele>
        <time>2021-08-13T18:02:15.547Z</time>
      </trkpt>
      <trkpt lat="43.84775" lon="6.51181">
        <ele>733</ele>
        <time>2021-08-13T18:02:26.125Z</time>
      </trkpt>
      <trkpt lat="43.84773" lon="6.51187">
        <ele>734</ele>
        <time>2021-08-13T18:02:31.280Z</time>
      </trkpt>
      <trkpt lat="43.84772" lon="6.51194">
        <ele>734</ele>
        <time>2021-08-13T18:02:32.723Z</time>
      </trkpt>
      <trkpt lat="43.8477" lon="6.51197">
        <ele>734</ele>
        <time>2021-08-13T18:02:33.550Z</time>
      </trkpt>
      <trkpt lat="43.84767" lon="6.51198">
        <ele>733</ele>
        <time>2021-08-13T18:02:33.897Z</time>
      </trkpt>
      <trkpt lat="43.8476" lon="6.51199">
        <ele>732</ele>
        <time>2021-08-13T18:02:34.688Z</time>
      </trkpt>
      <trkpt lat="43.84726" lon="6.51204">
        <ele>729</ele>
        <time>2021-08-13T18:02:38.534Z</time>
      </trkpt>
      <trkpt lat="43.8472" lon="6.51206">
        <ele>729</ele>
        <time>2021-08-13T18:02:40.264Z</time>
      </trkpt>
      <trkpt lat="43.84717" lon="6.51207">
        <ele>729</ele>
        <time>2021-08-13T18:02:41.130Z</time>
      </trkpt>
      <trkpt lat="43.84697" lon="6.51222">
        <ele>728</ele>
        <time>2021-08-13T18:02:43.959Z</time>
      </trkpt>
      <trkpt lat="43.84682" lon="6.51239">
        <ele>728</ele>
        <time>2021-08-13T18:02:49.391Z</time>
      </trkpt>
      <trkpt lat="43.84678" lon="6.51245">
        <ele>728</ele>
        <time>2021-08-13T18:02:51.043Z</time>
      </trkpt>
      <trkpt lat="43.84676" lon="6.51247">
        <ele>728</ele>
        <time>2021-08-13T18:02:51.735Z</time>
      </trkpt>
      <trkpt lat="43.84671" lon="6.51251">
        <ele>727</ele>
        <time>2021-08-13T18:02:52.384Z</time>
      </trkpt>
      <trkpt lat="43.84665" lon="6.51254">
        <ele>727</ele>
        <time>2021-08-13T18:02:54.173Z</time>
      </trkpt>
      <trkpt lat="43.84661" lon="6.51256">
        <ele>727</ele>
        <time>2021-08-13T18:02:55.365Z</time>
      </trkpt>
      <trkpt lat="43.84656" lon="6.51256">
        <ele>727</ele>
        <time>2021-08-13T18:02:56.767Z</time>
      </trkpt>
      <trkpt lat="43.84649" lon="6.51255">
        <ele>727</ele>
        <time>2021-08-13T18:02:58.740Z</time>
      </trkpt>
      <trkpt lat="43.84642" lon="6.51254">
        <ele>726</ele>
        <time>2021-08-13T18:02:59.531Z</time>
      </trkpt>
      <trkpt lat="43.84622" lon="6.51246">
        <ele>726</ele>
        <time>2021-08-13T18:03:05.368Z</time>
      </trkpt>
      <trkpt lat="43.84614" lon="6.51243">
        <ele>726</ele>
        <time>2021-08-13T18:03:07.691Z</time>
      </trkpt>
      <trkpt lat="43.84611" lon="6.51241">
        <ele>726</ele>
        <time>2021-08-13T18:03:08.625Z</time>
      </trkpt>
      <trkpt lat="43.84609" lon="6.51241">
        <ele>725</ele>
        <time>2021-08-13T18:03:08.850Z</time>
      </trkpt>
      <trkpt lat="43.84605" lon="6.51244">
        <ele>725</ele>
        <time>2021-08-13T18:03:10.125Z</time>
      </trkpt>
      <trkpt lat="43.84604" lon="6.51246">
        <ele>725</ele>
        <time>2021-08-13T18:03:10.617Z</time>
      </trkpt>
      <trkpt lat="43.84603" lon="6.51249">
        <ele>725</ele>
        <time>2021-08-13T18:03:11.285Z</time>
      </trkpt>
      <trkpt lat="43.84603" lon="6.51253">
        <ele>725</ele>
        <time>2021-08-13T18:03:12.094Z</time>
      </trkpt>
      <trkpt lat="43.846" lon="6.51264">
        <ele>725</ele>
        <time>2021-08-13T18:03:14.472Z</time>
      </trkpt>
      <trkpt lat="43.84599" lon="6.51277">
        <ele>725</ele>
        <time>2021-08-13T18:03:17.116Z</time>
      </trkpt>
      <trkpt lat="43.84591" lon="6.5132">
        <ele>724</ele>
        <time>2021-08-13T18:03:21.629Z</time>
      </trkpt>
      <trkpt lat="43.8459" lon="6.51325">
        <ele>724</ele>
        <time>2021-08-13T18:03:22.678Z</time>
      </trkpt>
      <trkpt lat="43.84587" lon="6.51341">
        <ele>723</ele>
        <time>2021-08-13T18:03:24.019Z</time>
      </trkpt>
      <trkpt lat="43.84585" lon="6.51357">
        <ele>723</ele>
        <time>2021-08-13T18:03:27.303Z</time>
      </trkpt>
      <trkpt lat="43.8458" lon="6.51379">
        <ele>724</ele>
        <time>2021-08-13T18:03:36.037Z</time>
      </trkpt>
      <trkpt lat="43.84579" lon="6.51389">
        <ele>724</ele>
        <time>2021-08-13T18:03:38.079Z</time>
      </trkpt>
      <trkpt lat="43.84577" lon="6.51397">
        <ele>724</ele>
        <time>2021-08-13T18:03:39.791Z</time>
      </trkpt>
      <trkpt lat="43.84575" lon="6.51403">
        <ele>724</ele>
        <time>2021-08-13T18:03:41.128Z</time>
      </trkpt>
      <trkpt lat="43.84574" lon="6.51406">
        <ele>724</ele>
        <time>2021-08-13T18:03:41.796Z</time>
      </trkpt>
      <trkpt lat="43.84571" lon="6.5141">
        <ele>725</ele>
        <time>2021-08-13T18:03:46.297Z</time>
      </trkpt>
      <trkpt lat="43.84541" lon="6.51445">
        <ele>727</ele>
        <time>2021-08-13T18:04:05.647Z</time>
      </trkpt>
      <trkpt lat="43.84536" lon="6.5145">
        <ele>728</ele>
        <time>2021-08-13T18:04:12.315Z</time>
      </trkpt>
      <trkpt lat="43.84529" lon="6.51458">
        <ele>728</ele>
        <time>2021-08-13T18:04:14.858Z</time>
      </trkpt>
      <trkpt lat="43.84517" lon="6.51477">
        <ele>730</ele>
        <time>2021-08-13T18:04:29.542Z</time>
      </trkpt>
      <trkpt lat="43.84517" lon="6.51477">
        <ele>730</ele>
        <time>2021-08-13T18:04:29.542Z</time>
      </trkpt>
      <trkpt lat="43.84514" lon="6.51487">
        <ele>731</ele>
        <time>2021-08-13T18:04:37.376Z</time>
      </trkpt>
      <trkpt lat="43.845" lon="6.51476">
        <ele>732</ele>
        <time>2021-08-13T18:04:45.948Z</time>
      </trkpt>
      <trkpt lat="43.84493" lon="6.51467">
        <ele>734</ele>
        <time>2021-08-13T18:04:56.272Z</time>
      </trkpt>
      <trkpt lat="43.84467" lon="6.51383">
        <ele>738</ele>
        <time>2021-08-13T18:05:31.024Z</time>
      </trkpt>
      <trkpt lat="43.84447" lon="6.51312">
        <ele>741</ele>
        <time>2021-08-13T18:05:58.808Z</time>
      </trkpt>
      <trkpt lat="43.8444" lon="6.51272">
        <ele>741</ele>
        <time>2021-08-13T18:06:07.132Z</time>
      </trkpt>
      <trkpt lat="43.84429" lon="6.51226">
        <ele>741</ele>
        <time>2021-08-13T18:06:16.932Z</time>
      </trkpt>
      <trkpt lat="43.84405" lon="6.5109">
        <ele>740</ele>
        <time>2021-08-13T18:06:35.196Z</time>
      </trkpt>
      <trkpt lat="43.84391" lon="6.51043">
        <ele>741</ele>
        <time>2021-08-13T18:06:48.902Z</time>
      </trkpt>
      <trkpt lat="43.84384" lon="6.51027">
        <ele>741</ele>
        <time>2021-08-13T18:06:52.687Z</time>
      </trkpt>
      <trkpt lat="43.84341" lon="6.50941">
        <ele>735</ele>
        <time>2021-08-13T18:07:01.176Z</time>
      </trkpt>
      <trkpt lat="43.84328" lon="6.50925">
        <ele>733</ele>
        <time>2021-08-13T18:07:03.132Z</time>
      </trkpt>
      <trkpt lat="43.84302" lon="6.50909">
        <ele>735</ele>
        <time>2021-08-13T18:07:19.219Z</time>
      </trkpt>
      <trkpt lat="43.84249" lon="6.50883">
        <ele>737</ele>
        <time>2021-08-13T18:07:42.601Z</time>
      </trkpt>
      <trkpt lat="43.84229" lon="6.50868">
        <ele>738</ele>
        <time>2021-08-13T18:07:53.277Z</time>
      </trkpt>
      <trkpt lat="43.84212" lon="6.50844">
        <ele>736</ele>
        <time>2021-08-13T18:07:56.007Z</time>
      </trkpt>
      <trkpt lat="43.8419" lon="6.50798">
        <ele>734</ele>
        <time>2021-08-13T18:08:00.692Z</time>
      </trkpt>
      <trkpt lat="43.84179" lon="6.50765">
        <ele>732</ele>
        <time>2021-08-13T18:08:03.642Z</time>
      </trkpt>
      <trkpt lat="43.84168" lon="6.50719">
        <ele>729</ele>
        <time>2021-08-13T18:08:07.573Z</time>
      </trkpt>
      <trkpt lat="43.8415" lon="6.50678">
        <ele>730</ele>
        <time>2021-08-13T18:08:20.772Z</time>
      </trkpt>
      <trkpt lat="43.84132" lon="6.50626">
        <ele>729</ele>
        <time>2021-08-13T18:08:27.106Z</time>
      </trkpt>
      <trkpt lat="43.84128" lon="6.50617">
        <ele>728</ele>
        <time>2021-08-13T18:08:27.963Z</time>
      </trkpt>
      <trkpt lat="43.84106" lon="6.50595">
        <ele>729</ele>
        <time>2021-08-13T18:08:39.447Z</time>
      </trkpt>
      <trkpt lat="43.84099" lon="6.50585">
        <ele>729</ele>
        <time>2021-08-13T18:08:42.265Z</time>
      </trkpt>
      <trkpt lat="43.84094" lon="6.50574">
        <ele>730</ele>
        <time>2021-08-13T18:08:49.575Z</time>
      </trkpt>
      <trkpt lat="43.84092" lon="6.50564">
        <ele>730</ele>
        <time>2021-08-13T18:08:51.674Z</time>
      </trkpt>
      <trkpt lat="43.84091" lon="6.50555">
        <ele>730</ele>
        <time>2021-08-13T18:08:53.515Z</time>
      </trkpt>
      <trkpt lat="43.84093" lon="6.50547">
        <ele>730</ele>
        <time>2021-08-13T18:08:55.228Z</time>
      </trkpt>
      <trkpt lat="43.84102" lon="6.50526">
        <ele>729</ele>
        <time>2021-08-13T18:08:57.191Z</time>
      </trkpt>
      <trkpt lat="43.84103" lon="6.50517">
        <ele>728</ele>
        <time>2021-08-13T18:08:57.930Z</time>
      </trkpt>
      <trkpt lat="43.841" lon="6.50496">
        <ele>729</ele>
        <time>2021-08-13T18:09:06.310Z</time>
      </trkpt>
      <trkpt lat="43.84067" lon="6.5041">
        <ele>733</ele>
        <time>2021-08-13T18:09:42.396Z</time>
      </trkpt>
      <trkpt lat="43.84048" lon="6.50351">
        <ele>731</ele>
        <time>2021-08-13T18:09:48.253Z</time>
      </trkpt>
      <trkpt lat="43.84041" lon="6.50339">
        <ele>732</ele>
        <time>2021-08-13T18:09:55.638Z</time>
      </trkpt>
      <trkpt lat="43.83981" lon="6.50264">
        <ele>732</ele>
        <time>2021-08-13T18:10:18.289Z</time>
      </trkpt>
      <trkpt lat="43.83948" lon="6.5024">
        <ele>732</ele>
        <time>2021-08-13T18:10:28.738Z</time>
      </trkpt>
      <trkpt lat="43.83937" lon="6.50237">
        <ele>733</ele>
        <time>2021-08-13T18:10:36.134Z</time>
      </trkpt>
      <trkpt lat="43.83933" lon="6.50239">
        <ele>734</ele>
        <time>2021-08-13T18:10:40.732Z</time>
      </trkpt>
      <trkpt lat="43.83914" lon="6.50269">
        <ele>741</ele>
        <time>2021-08-13T18:11:11.875Z</time>
      </trkpt>
      <trkpt lat="43.83905" lon="6.50277">
        <ele>745</ele>
        <time>2021-08-13T18:11:23.437Z</time>
      </trkpt>
      <trkpt lat="43.83901" lon="6.50278">
        <ele>746</ele>
        <time>2021-08-13T18:11:27.833Z</time>
      </trkpt>
      <trkpt lat="43.83896" lon="6.50275">
        <ele>747</ele>
        <time>2021-08-13T18:11:33.725Z</time>
      </trkpt>
      <trkpt lat="43.83891" lon="6.5027">
        <ele>747</ele>
        <time>2021-08-13T18:11:35.454Z</time>
      </trkpt>
      <trkpt lat="43.83888" lon="6.50263">
        <ele>747</ele>
        <time>2021-08-13T18:11:37.101Z</time>
      </trkpt>
      <trkpt lat="43.83888" lon="6.50255">
        <ele>747</ele>
        <time>2021-08-13T18:11:38.719Z</time>
      </trkpt>
      <trkpt lat="43.83896" lon="6.50208">
        <ele>742</ele>
        <time>2021-08-13T18:11:42.637Z</time>
      </trkpt>
      <trkpt lat="43.83902" lon="6.50185">
        <ele>739</ele>
        <time>2021-08-13T18:11:44.621Z</time>
      </trkpt>
      <trkpt lat="43.83917" lon="6.50155">
        <ele>733</ele>
        <time>2021-08-13T18:11:47.583Z</time>
      </trkpt>
      <trkpt lat="43.83918" lon="6.50141">
        <ele>731</ele>
        <time>2021-08-13T18:11:48.724Z</time>
      </trkpt>
      <trkpt lat="43.83913" lon="6.50121">
        <ele>731</ele>
        <time>2021-08-13T18:11:53.005Z</time>
      </trkpt>
      <trkpt lat="43.83879" lon="6.50049">
        <ele>729</ele>
        <time>2021-08-13T18:12:01.662Z</time>
      </trkpt>
      <trkpt lat="43.83871" lon="6.50041">
        <ele>729</ele>
        <time>2021-08-13T18:12:04.427Z</time>
      </trkpt>
      <trkpt lat="43.83861" lon="6.50038">
        <ele>730</ele>
        <time>2021-08-13T18:12:11.727Z</time>
      </trkpt>
      <trkpt lat="43.83832" lon="6.50057">
        <ele>740</ele>
        <time>2021-08-13T18:12:46.416Z</time>
      </trkpt>
      <trkpt lat="43.83823" lon="6.50061">
        <ele>742</ele>
        <time>2021-08-13T18:12:56.637Z</time>
      </trkpt>
      <trkpt lat="43.83787" lon="6.50069">
        <ele>747</ele>
        <time>2021-08-13T18:13:36.068Z</time>
      </trkpt>
      <trkpt lat="43.83788" lon="6.50077">
        <ele>749</ele>
        <time>2021-08-13T18:13:42.401Z</time>
      </trkpt>
      <trkpt lat="43.83798" lon="6.50081">
        <ele>749</ele>
        <time>2021-08-13T18:13:45.320Z</time>
      </trkpt>
      <trkpt lat="43.83845" lon="6.5008">
        <ele>742</ele>
        <time>2021-08-13T18:13:50.607Z</time>
      </trkpt>
      <trkpt lat="43.83856" lon="6.50086">
        <ele>741</ele>
        <time>2021-08-13T18:13:51.937Z</time>
      </trkpt>
      <trkpt lat="43.83862" lon="6.50097">
        <ele>741</ele>
        <time>2021-08-13T18:13:54.726Z</time>
      </trkpt>
      <trkpt lat="43.83861" lon="6.50109">
        <ele>743</ele>
        <time>2021-08-13T18:14:04.149Z</time>
      </trkpt>
      <trkpt lat="43.83853" lon="6.50113">
        <ele>746</ele>
        <time>2021-08-13T18:14:13.346Z</time>
      </trkpt>
      <trkpt lat="43.83842" lon="6.50108">
        <ele>748</ele>
        <time>2021-08-13T18:14:25.866Z</time>
      </trkpt>
      <trkpt lat="43.8383" lon="6.50107">
        <ele>751</ele>
        <time>2021-08-13T18:14:38.867Z</time>
      </trkpt>
      <trkpt lat="43.83825" lon="6.50111">
        <ele>752</ele>
        <time>2021-08-13T18:14:45.110Z</time>
      </trkpt>
      <trkpt lat="43.83823" lon="6.50116">
        <ele>753</ele>
        <time>2021-08-13T18:14:49.570Z</time>
      </trkpt>
      <trkpt lat="43.83827" lon="6.50124">
        <ele>754</ele>
        <time>2021-08-13T18:14:57.164Z</time>
      </trkpt>
      <trkpt lat="43.83836" lon="6.50128">
        <ele>754</ele>
        <time>2021-08-13T18:14:59.814Z</time>
      </trkpt>
      <trkpt lat="43.83849" lon="6.5013">
        <ele>750</ele>
        <time>2021-08-13T18:15:01.285Z</time>
      </trkpt>
      <trkpt lat="43.83857" lon="6.50137">
        <ele>749</ele>
        <time>2021-08-13T18:15:02.349Z</time>
      </trkpt>
      <trkpt lat="43.83865" lon="6.50148">
        <ele>748</ele>
        <time>2021-08-13T18:15:03.617Z</time>
      </trkpt>
      <trkpt lat="43.83862" lon="6.50159">
        <ele>751</ele>
        <time>2021-08-13T18:15:12.790Z</time>
      </trkpt>
      <trkpt lat="43.83824" lon="6.50154">
        <ele>760</ele>
        <time>2021-08-13T18:15:54.072Z</time>
      </trkpt>
      <trkpt lat="43.8379" lon="6.5016">
        <ele>762</ele>
        <time>2021-08-13T18:16:11.848Z</time>
      </trkpt>
      <trkpt lat="43.83763" lon="6.5018">
        <ele>766</ele>
        <time>2021-08-13T18:16:43.682Z</time>
      </trkpt>
      <trkpt lat="43.83753" lon="6.50194">
        <ele>769</ele>
        <time>2021-08-13T18:16:59.052Z</time>
      </trkpt>
      <trkpt lat="43.83747" lon="6.50221">
        <ele>773</ele>
        <time>2021-08-13T18:17:21.091Z</time>
      </trkpt>
      <trkpt lat="43.83729" lon="6.50281">
        <ele>781</ele>
        <time>2021-08-13T18:18:11.783Z</time>
      </trkpt>
      <trkpt lat="43.83716" lon="6.50295">
        <ele>783</ele>
        <time>2021-08-13T18:18:26.966Z</time>
      </trkpt>
      <trkpt lat="43.83706" lon="6.50319">
        <ele>786</ele>
        <time>2021-08-13T18:18:48.588Z</time>
      </trkpt>
      <trkpt lat="43.83686" lon="6.50355">
        <ele>792</ele>
        <time>2021-08-13T18:19:24.035Z</time>
      </trkpt>
      <trkpt lat="43.83673" lon="6.5041">
        <ele>798</ele>
        <time>2021-08-13T18:20:09.186Z</time>
      </trkpt>
      <trkpt lat="43.83628" lon="6.50503">
        <ele>804</ele>
        <time>2021-08-13T18:20:56.280Z</time>
      </trkpt>
      <trkpt lat="43.83566" lon="6.50565">
        <ele>816</ele>
        <time>2021-08-13T18:22:18.956Z</time>
      </trkpt>
      <trkpt lat="43.83537" lon="6.50621">
        <ele>822</ele>
        <time>2021-08-13T18:23:04.354Z</time>
      </trkpt>
      <trkpt lat="43.83509" lon="6.50666">
        <ele>829</ele>
        <time>2021-08-13T18:23:50.715Z</time>
      </trkpt>
      <trkpt lat="43.83489" lon="6.507">
        <ele>832</ele>
        <time>2021-08-13T18:24:12.676Z</time>
      </trkpt>
      <trkpt lat="43.83471" lon="6.5072">
        <ele>835</ele>
        <time>2021-08-13T18:24:36.461Z</time>
      </trkpt>
      <trkpt lat="43.83441" lon="6.50745">
        <ele>840</ele>
        <time>2021-08-13T18:25:14.317Z</time>
      </trkpt>
      <trkpt lat="43.83401" lon="6.50765">
        <ele>850</ele>
        <time>2021-08-13T18:26:00.304Z</time>
      </trkpt>
      <trkpt lat="43.83359" lon="6.50804">
        <ele>856</ele>
        <time>2021-08-13T18:26:45.372Z</time>
      </trkpt>
      <trkpt lat="43.83335" lon="6.50817">
        <ele>861</ele>
        <time>2021-08-13T18:27:13.239Z</time>
      </trkpt>
      <trkpt lat="43.83297" lon="6.5084">
        <ele>866</ele>
        <time>2021-08-13T18:27:51.059Z</time>
      </trkpt>
      <trkpt lat="43.83256" lon="6.50875">
        <ele>873</ele>
        <time>2021-08-13T18:28:43.133Z</time>
      </trkpt>
      <trkpt lat="43.83225" lon="6.50896">
        <ele>877</ele>
        <time>2021-08-13T18:29:12.914Z</time>
      </trkpt>
      <trkpt lat="43.83215" lon="6.50906">
        <ele>877</ele>
        <time>2021-08-13T18:29:16.371Z</time>
      </trkpt>
      <trkpt lat="43.83183" lon="6.50908">
        <ele>884</ele>
        <time>2021-08-13T18:29:51.014Z</time>
      </trkpt>
      <trkpt lat="43.83157" lon="6.50932">
        <ele>888</ele>
        <time>2021-08-13T18:30:22.359Z</time>
      </trkpt>
      <trkpt lat="43.83155" lon="6.50945">
        <ele>889</ele>
        <time>2021-08-13T18:30:29.656Z</time>
      </trkpt>
      <trkpt lat="43.8316" lon="6.50957">
        <ele>887</ele>
        <time>2021-08-13T18:30:30.780Z</time>
      </trkpt>
      <trkpt lat="43.83174" lon="6.50963">
        <ele>883</ele>
        <time>2021-08-13T18:30:32.428Z</time>
      </trkpt>
      <trkpt lat="43.83191" lon="6.50963">
        <ele>879</ele>
        <time>2021-08-13T18:30:34.341Z</time>
      </trkpt>
      <trkpt lat="43.83203" lon="6.50972">
        <ele>876</ele>
        <time>2021-08-13T18:30:35.875Z</time>
      </trkpt>
      <trkpt lat="43.83204" lon="6.50984">
        <ele>876</ele>
        <time>2021-08-13T18:30:38.319Z</time>
      </trkpt>
      <trkpt lat="43.83194" lon="6.5099">
        <ele>878</ele>
        <time>2021-08-13T18:30:50.103Z</time>
      </trkpt>
      <trkpt lat="43.83168" lon="6.50989">
        <ele>885</ele>
        <time>2021-08-13T18:31:18.233Z</time>
      </trkpt>
      <trkpt lat="43.83149" lon="6.51001">
        <ele>889</ele>
        <time>2021-08-13T18:31:40.813Z</time>
      </trkpt>
      <trkpt lat="43.83061" lon="6.51069">
        <ele>904</ele>
        <time>2021-08-13T18:33:29.772Z</time>
      </trkpt>
      <trkpt lat="43.83018" lon="6.51079">
        <ele>914</ele>
        <time>2021-08-13T18:34:16.926Z</time>
      </trkpt>
      <trkpt lat="43.8299" lon="6.51091">
        <ele>922</ele>
        <time>2021-08-13T18:34:48.622Z</time>
      </trkpt>
      <trkpt lat="43.82975" lon="6.51088">
        <ele>928</ele>
        <time>2021-08-13T18:35:05.013Z</time>
      </trkpt>
      <trkpt lat="43.82837" lon="6.50981">
        <ele>967</ele>
        <time>2021-08-13T18:37:56.020Z</time>
      </trkpt>
      <trkpt lat="43.82808" lon="6.50965">
        <ele>973</ele>
        <time>2021-08-13T18:38:29.776Z</time>
      </trkpt>
      <trkpt lat="43.82768" lon="6.50952">
        <ele>981</ele>
        <time>2021-08-13T18:39:14.209Z</time>
      </trkpt>
      <trkpt lat="43.8273" lon="6.50942">
        <ele>987</ele>
        <time>2021-08-13T18:39:56.040Z</time>
      </trkpt>
      <trkpt lat="43.82716" lon="6.50936">
        <ele>987</ele>
        <time>2021-08-13T18:40:00.149Z</time>
      </trkpt>
      <trkpt lat="43.827" lon="6.50923">
        <ele>986</ele>
        <time>2021-08-13T18:40:02.264Z</time>
      </trkpt>
      <trkpt lat="43.82678" lon="6.50912">
        <ele>987</ele>
        <time>2021-08-13T18:40:13.043Z</time>
      </trkpt>
      <trkpt lat="43.82666" lon="6.50908">
        <ele>988</ele>
        <time>2021-08-13T18:40:20.638Z</time>
      </trkpt>
      <trkpt lat="43.82554" lon="6.50929">
        <ele>972</ele>
        <time>2021-08-13T18:40:33.351Z</time>
      </trkpt>
      <trkpt lat="43.82461" lon="6.50936">
        <ele>966</ele>
        <time>2021-08-13T18:40:43.115Z</time>
      </trkpt>
      <trkpt lat="43.82438" lon="6.50936">
        <ele>965</ele>
        <time>2021-08-13T18:40:45.990Z</time>
      </trkpt>
      <trkpt lat="43.8242" lon="6.50926">
        <ele>962</ele>
        <time>2021-08-13T18:40:48.172Z</time>
      </trkpt>
      <trkpt lat="43.82369" lon="6.50878">
        <ele>954</ele>
        <time>2021-08-13T18:40:55.106Z</time>
      </trkpt>
      <trkpt lat="43.82316" lon="6.5081">
        <ele>940</ele>
        <time>2021-08-13T18:41:03.230Z</time>
      </trkpt>
      <trkpt lat="43.82273" lon="6.50768">
        <ele>931</ele>
        <time>2021-08-13T18:41:09.147Z</time>
      </trkpt>
      <trkpt lat="43.82255" lon="6.50752">
        <ele>929</ele>
        <time>2021-08-13T18:41:11.553Z</time>
      </trkpt>
      <trkpt lat="43.82248" lon="6.50753">
        <ele>929</ele>
        <time>2021-08-13T18:41:13.526Z</time>
      </trkpt>
      <trkpt lat="43.82248" lon="6.50805">
        <ele>936</ele>
        <time>2021-08-13T18:41:54.100Z</time>
      </trkpt>
      <trkpt lat="43.82243" lon="6.5082">
        <ele>936</ele>
        <time>2021-08-13T18:41:57.443Z</time>
      </trkpt>
      <trkpt lat="43.82239" lon="6.5082">
        <ele>935</ele>
        <time>2021-08-13T18:41:57.893Z</time>
      </trkpt>
      <trkpt lat="43.82186" lon="6.50874">
        <ele>922</ele>
        <time>2021-08-13T18:42:05.292Z</time>
      </trkpt>
      <trkpt lat="43.8218" lon="6.5087">
        <ele>920</ele>
        <time>2021-08-13T18:42:06.041Z</time>
      </trkpt>
      <trkpt lat="43.82187" lon="6.50841">
        <ele>920</ele>
        <time>2021-08-13T18:42:12.227Z</time>
      </trkpt>
      <trkpt lat="43.82185" lon="6.50831">
        <ele>919</ele>
        <time>2021-08-13T18:42:13.070Z</time>
      </trkpt>
      <trkpt lat="43.82162" lon="6.50858">
        <ele>915</ele>
        <time>2021-08-13T18:42:16.460Z</time>
      </trkpt>
      <trkpt lat="43.82143" lon="6.50889">
        <ele>917</ele>
        <time>2021-08-13T18:42:32.790Z</time>
      </trkpt>
      <trkpt lat="43.82137" lon="6.50889">
        <ele>917</ele>
        <time>2021-08-13T18:42:34.472Z</time>
      </trkpt>
      <trkpt lat="43.82136" lon="6.5088">
        <ele>917</ele>
        <time>2021-08-13T18:42:36.315Z</time>
      </trkpt>
      <trkpt lat="43.82144" lon="6.50863">
        <ele>916</ele>
        <time>2021-08-13T18:42:37.962Z</time>
      </trkpt>
      <trkpt lat="43.82146" lon="6.5084">
        <ele>914</ele>
        <time>2021-08-13T18:42:39.842Z</time>
      </trkpt>
      <trkpt lat="43.82146" lon="6.50824">
        <ele>914</ele>
        <time>2021-08-13T18:42:43.079Z</time>
      </trkpt>
      <trkpt lat="43.82141" lon="6.50804">
        <ele>914</ele>
        <time>2021-08-13T18:42:47.361Z</time>
      </trkpt>
      <trkpt lat="43.82135" lon="6.50789">
        <ele>916</ele>
        <time>2021-08-13T18:43:00.744Z</time>
      </trkpt>
      <trkpt lat="43.82136" lon="6.50758">
        <ele>916</ele>
        <time>2021-08-13T18:43:07.021Z</time>
      </trkpt>
      <trkpt lat="43.82141" lon="6.5073">
        <ele>916</ele>
        <time>2021-08-13T18:43:12.857Z</time>
      </trkpt>
      <trkpt lat="43.82146" lon="6.50708">
        <ele>914</ele>
        <time>2021-08-13T18:43:14.728Z</time>
      </trkpt>
      <trkpt lat="43.82163" lon="6.5065">
        <ele>912</ele>
        <time>2021-08-13T18:43:20.334Z</time>
      </trkpt>
      <trkpt lat="43.82184" lon="6.50634">
        <ele>913</ele>
        <time>2021-08-13T18:43:31.211Z</time>
      </trkpt>
      <trkpt lat="43.82188" lon="6.50628">
        <ele>913</ele>
        <time>2021-08-13T18:43:32.863Z</time>
      </trkpt>
      <trkpt lat="43.82155" lon="6.50638">
        <ele>915</ele>
        <time>2021-08-13T18:43:50.488Z</time>
      </trkpt>
      <trkpt lat="43.8215" lon="6.50644">
        <ele>916</ele>
        <time>2021-08-13T18:43:57.640Z</time>
      </trkpt>
      <trkpt lat="43.82145" lon="6.5066">
        <ele>915</ele>
        <time>2021-08-13T18:43:59.055Z</time>
      </trkpt>
      <trkpt lat="43.82142" lon="6.5068">
        <ele>915</ele>
        <time>2021-08-13T18:44:03.188Z</time>
      </trkpt>
      <trkpt lat="43.82131" lon="6.50701">
        <ele>918</ele>
        <time>2021-08-13T18:44:23.437Z</time>
      </trkpt>
      <trkpt lat="43.82119" lon="6.5072">
        <ele>921</ele>
        <time>2021-08-13T18:44:43.141Z</time>
      </trkpt>
      <trkpt lat="43.82104" lon="6.50775">
        <ele>922</ele>
        <time>2021-08-13T18:44:58.311Z</time>
      </trkpt>
      <trkpt lat="43.82096" lon="6.50798">
        <ele>920</ele>
        <time>2021-08-13T18:45:00.383Z</time>
      </trkpt>
      <trkpt lat="43.82088" lon="6.50811">
        <ele>919</ele>
        <time>2021-08-13T18:45:01.770Z</time>
      </trkpt>
      <trkpt lat="43.82077" lon="6.50816">
        <ele>920</ele>
        <time>2021-08-13T18:45:09.222Z</time>
      </trkpt>
      <trkpt lat="43.82059" lon="6.50816">
        <ele>924</ele>
        <time>2021-08-13T18:45:28.689Z</time>
      </trkpt>
      <trkpt lat="43.82043" lon="6.50814">
        <ele>928</ele>
        <time>2021-08-13T18:45:46.063Z</time>
      </trkpt>
      <trkpt lat="43.82034" lon="6.50819">
        <ele>929</ele>
        <time>2021-08-13T18:45:53.356Z</time>
      </trkpt>
      <trkpt lat="43.82024" lon="6.50825">
        <ele>929</ele>
        <time>2021-08-13T18:45:56.411Z</time>
      </trkpt>
      <trkpt lat="43.82009" lon="6.50841">
        <ele>930</ele>
        <time>2021-08-13T18:46:05.866Z</time>
      </trkpt>
      <trkpt lat="43.81978" lon="6.50875">
        <ele>929</ele>
        <time>2021-08-13T18:46:11.801Z</time>
      </trkpt>
      <trkpt lat="43.81968" lon="6.5088">
        <ele>928</ele>
        <time>2021-08-13T18:46:12.997Z</time>
      </trkpt>
      <trkpt lat="43.81936" lon="6.50889">
        <ele>927</ele>
        <time>2021-08-13T18:46:17.626Z</time>
      </trkpt>
      <trkpt lat="43.8192" lon="6.50888">
        <ele>928</ele>
        <time>2021-08-13T18:46:26.175Z</time>
      </trkpt>
      <trkpt lat="43.81911" lon="6.50881">
        <ele>929</ele>
        <time>2021-08-13T18:46:33.479Z</time>
      </trkpt>
      <trkpt lat="43.81883" lon="6.50832">
        <ele>938</ele>
        <time>2021-08-13T18:47:22.254Z</time>
      </trkpt>
      <trkpt lat="43.81876" lon="6.50828">
        <ele>939</ele>
        <time>2021-08-13T18:47:30.285Z</time>
      </trkpt>
      <trkpt lat="43.81868" lon="6.50827">
        <ele>939</ele>
        <time>2021-08-13T18:47:32.537Z</time>
      </trkpt>
      <trkpt lat="43.81859" lon="6.5083">
        <ele>939</ele>
        <time>2021-08-13T18:47:35.132Z</time>
      </trkpt>
      <trkpt lat="43.81836" lon="6.50848">
        <ele>936</ele>
        <time>2021-08-13T18:47:38.103Z</time>
      </trkpt>
      <trkpt lat="43.81806" lon="6.50852">
        <ele>940</ele>
        <time>2021-08-13T18:48:10.365Z</time>
      </trkpt>
      <trkpt lat="43.81797" lon="6.50856">
        <ele>941</ele>
        <time>2021-08-13T18:48:17.670Z</time>
      </trkpt>
      <trkpt lat="43.81789" lon="6.50864">
        <ele>941</ele>
        <time>2021-08-13T18:48:20.436Z</time>
      </trkpt>
      <trkpt lat="43.81766" lon="6.50897">
        <ele>938</ele>
        <time>2021-08-13T18:48:24.160Z</time>
      </trkpt>
      <trkpt lat="43.81751" lon="6.5091">
        <ele>937</ele>
        <time>2021-08-13T18:48:26.135Z</time>
      </trkpt>
      <trkpt lat="43.81744" lon="6.50912">
        <ele>939</ele>
        <time>2021-08-13T18:48:33.864Z</time>
      </trkpt>
      <trkpt lat="43.81737" lon="6.5091">
        <ele>941</ele>
        <time>2021-08-13T18:48:41.594Z</time>
      </trkpt>
      <trkpt lat="43.8173" lon="6.50903">
        <ele>944</ele>
        <time>2021-08-13T18:48:50.929Z</time>
      </trkpt>
      <trkpt lat="43.81724" lon="6.50893">
        <ele>946</ele>
        <time>2021-08-13T18:49:01.078Z</time>
      </trkpt>
      <trkpt lat="43.81705" lon="6.5084">
        <ele>955</ele>
        <time>2021-08-13T18:49:47.260Z</time>
      </trkpt>
      <trkpt lat="43.81681" lon="6.50796">
        <ele>961</ele>
        <time>2021-08-13T18:50:30.303Z</time>
      </trkpt>
      <trkpt lat="43.81663" lon="6.5077">
        <ele>965</ele>
        <time>2021-08-13T18:50:58.421Z</time>
      </trkpt>
      <trkpt lat="43.81641" lon="6.50744">
        <ele>970</ele>
        <time>2021-08-13T18:51:29.690Z</time>
      </trkpt>
      <trkpt lat="43.81636" lon="6.50739">
        <ele>971</ele>
        <time>2021-08-13T18:51:36.358Z</time>
      </trkpt>
      <trkpt lat="43.81628" lon="6.50737">
        <ele>972</ele>
        <time>2021-08-13T18:51:43.999Z</time>
      </trkpt>
      <trkpt lat="43.81624" lon="6.50739">
        <ele>972</ele>
        <time>2021-08-13T18:51:45.191Z</time>
      </trkpt>
      <trkpt lat="43.81622" lon="6.50745">
        <ele>972</ele>
        <time>2021-08-13T18:51:46.528Z</time>
      </trkpt>
      <trkpt lat="43.81621" lon="6.50754">
        <ele>972</ele>
        <time>2021-08-13T18:51:48.371Z</time>
      </trkpt>
      <trkpt lat="43.81637" lon="6.50796">
        <ele>969</ele>
        <time>2021-08-13T18:51:52.226Z</time>
      </trkpt>
      <trkpt lat="43.81643" lon="6.50829">
        <ele>967</ele>
        <time>2021-08-13T18:51:54.988Z</time>
      </trkpt>
      <trkpt lat="43.8165" lon="6.5086">
        <ele>965</ele>
        <time>2021-08-13T18:51:57.624Z</time>
      </trkpt>
      <trkpt lat="43.81664" lon="6.50906">
        <ele>960</ele>
        <time>2021-08-13T18:52:01.676Z</time>
      </trkpt>
      <trkpt lat="43.81667" lon="6.50922">
        <ele>958</ele>
        <time>2021-08-13T18:52:03.018Z</time>
      </trkpt>
      <trkpt lat="43.81667" lon="6.50931">
        <ele>958</ele>
        <time>2021-08-13T18:52:04.839Z</time>
      </trkpt>
      <trkpt lat="43.81663" lon="6.50937">
        <ele>959</ele>
        <time>2021-08-13T18:52:11.214Z</time>
      </trkpt>
      <trkpt lat="43.8166" lon="6.50938">
        <ele>960</ele>
        <time>2021-08-13T18:52:14.551Z</time>
      </trkpt>
      <trkpt lat="43.81654" lon="6.50932">
        <ele>964</ele>
        <time>2021-08-13T18:52:22.552Z</time>
      </trkpt>
      <trkpt lat="43.81648" lon="6.50903">
        <ele>968</ele>
        <time>2021-08-13T18:52:46.095Z</time>
      </trkpt>
      <trkpt lat="43.81645" lon="6.50895">
        <ele>969</ele>
        <time>2021-08-13T18:52:53.131Z</time>
      </trkpt>
      <trkpt lat="43.81595" lon="6.5079">
        <ele>979</ele>
        <time>2021-08-13T18:54:06.594Z</time>
      </trkpt>
      <trkpt lat="43.81574" lon="6.50758">
        <ele>979</ele>
        <time>2021-08-13T18:54:15.345Z</time>
      </trkpt>
      <trkpt lat="43.81539" lon="6.50724">
        <ele>990</ele>
        <time>2021-08-13T18:55:01.570Z</time>
      </trkpt>
      <trkpt lat="43.81536" lon="6.50716">
        <ele>991</ele>
        <time>2021-08-13T18:55:08.606Z</time>
      </trkpt>
      <trkpt lat="43.81536" lon="6.50706">
        <ele>992</ele>
        <time>2021-08-13T18:55:16.410Z</time>
      </trkpt>
      <trkpt lat="43.81548" lon="6.5066">
        <ele>989</ele>
        <time>2021-08-13T18:55:20.380Z</time>
      </trkpt>
      <trkpt lat="43.81551" lon="6.50633">
        <ele>990</ele>
        <time>2021-08-13T18:55:30.091Z</time>
      </trkpt>
      <trkpt lat="43.81551" lon="6.50569">
        <ele>993</ele>
        <time>2021-08-13T18:55:55.193Z</time>
      </trkpt>
      <trkpt lat="43.8155" lon="6.50548">
        <ele>994</ele>
        <time>2021-08-13T18:56:03.501Z</time>
      </trkpt>
      <trkpt lat="43.81544" lon="6.50527">
        <ele>996</ele>
        <time>2021-08-13T18:56:18.762Z</time>
      </trkpt>
      <trkpt lat="43.81517" lon="6.50497">
        <ele>1002</ele>
        <time>2021-08-13T18:56:56.189Z</time>
      </trkpt>
      <trkpt lat="43.81502" lon="6.50475">
        <ele>1003</ele>
        <time>2021-08-13T18:57:06.609Z</time>
      </trkpt>
      <trkpt lat="43.81492" lon="6.50453">
        <ele>1005</ele>
        <time>2021-08-13T18:57:21.229Z</time>
      </trkpt>
      <trkpt lat="43.81486" lon="6.50431">
        <ele>1006</ele>
        <time>2021-08-13T18:57:30.066Z</time>
      </trkpt>
      <trkpt lat="43.81486" lon="6.50419">
        <ele>1005</ele>
        <time>2021-08-13T18:57:31.040Z</time>
      </trkpt>
      <trkpt lat="43.8149" lon="6.50393">
        <ele>1006</ele>
        <time>2021-08-13T18:57:40.578Z</time>
      </trkpt>
      <trkpt lat="43.81493" lon="6.50383">
        <ele>1006</ele>
        <time>2021-08-13T18:57:42.769Z</time>
      </trkpt>
      <trkpt lat="43.81506" lon="6.50361">
        <ele>1005</ele>
        <time>2021-08-13T18:57:45.216Z</time>
      </trkpt>
      <trkpt lat="43.81508" lon="6.50354">
        <ele>1005</ele>
        <time>2021-08-13T18:57:46.740Z</time>
      </trkpt>
      <trkpt lat="43.81508" lon="6.50347">
        <ele>1006</ele>
        <time>2021-08-13T18:57:52.202Z</time>
      </trkpt>
      <trkpt lat="43.81504" lon="6.50343">
        <ele>1007</ele>
        <time>2021-08-13T18:57:57.537Z</time>
      </trkpt>
      <trkpt lat="43.815" lon="6.50343">
        <ele>1007</ele>
        <time>2021-08-13T18:57:58.658Z</time>
      </trkpt>
      <trkpt lat="43.8149" lon="6.50356">
        <ele>1009</ele>
        <time>2021-08-13T18:58:13.487Z</time>
      </trkpt>
      <trkpt lat="43.8148" lon="6.50376">
        <ele>1011</ele>
        <time>2021-08-13T18:58:28.296Z</time>
      </trkpt>
      <trkpt lat="43.81459" lon="6.5043">
        <ele>1016</ele>
        <time>2021-08-13T18:59:05.236Z</time>
      </trkpt>
      <trkpt lat="43.81452" lon="6.50458">
        <ele>1018</ele>
        <time>2021-08-13T18:59:19.903Z</time>
      </trkpt>
      <trkpt lat="43.81444" lon="6.50509">
        <ele>1021</ele>
        <time>2021-08-13T18:59:42.820Z</time>
      </trkpt>
      <trkpt lat="43.81432" lon="6.5063">
        <ele>1024</ele>
        <time>2021-08-13T19:00:18.727Z</time>
      </trkpt>
      <trkpt lat="43.81416" lon="6.5072">
        <ele>1028</ele>
        <time>2021-08-13T19:00:53.770Z</time>
      </trkpt>
      <trkpt lat="43.81417" lon="6.50824">
        <ele>1030</ele>
        <time>2021-08-13T19:01:21.608Z</time>
      </trkpt>
      <trkpt lat="43.81421" lon="6.50861">
        <ele>1031</ele>
        <time>2021-08-13T19:01:33.065Z</time>
      </trkpt>
      <trkpt lat="43.81433" lon="6.50912">
        <ele>1032</ele>
        <time>2021-08-13T19:01:47.283Z</time>
      </trkpt>
      <trkpt lat="43.81435" lon="6.50928">
        <ele>1032</ele>
        <time>2021-08-13T19:01:50.568Z</time>
      </trkpt>
      <trkpt lat="43.81435" lon="6.50942">
        <ele>1032</ele>
        <time>2021-08-13T19:01:53.401Z</time>
      </trkpt>
      <trkpt lat="43.81434" lon="6.50955">
        <ele>1031</ele>
        <time>2021-08-13T19:01:54.462Z</time>
      </trkpt>
      <trkpt lat="43.8143" lon="6.50967">
        <ele>1032</ele>
        <time>2021-08-13T19:02:01.761Z</time>
      </trkpt>
      <trkpt lat="43.81417" lon="6.50982">
        <ele>1033</ele>
        <time>2021-08-13T19:02:10.581Z</time>
      </trkpt>
      <trkpt lat="43.81398" lon="6.50993">
        <ele>1035</ele>
        <time>2021-08-13T19:02:25.187Z</time>
      </trkpt>
      <trkpt lat="43.8138" lon="6.50994">
        <ele>1036</ele>
        <time>2021-08-13T19:02:34.349Z</time>
      </trkpt>
      <trkpt lat="43.81357" lon="6.50987">
        <ele>1039</ele>
        <time>2021-08-13T19:02:57.773Z</time>
      </trkpt>
      <trkpt lat="43.81344" lon="6.50989">
        <ele>1040</ele>
        <time>2021-08-13T19:03:05.530Z</time>
      </trkpt>
      <trkpt lat="43.81324" lon="6.51">
        <ele>1040</ele>
        <time>2021-08-13T19:03:11.564Z</time>
      </trkpt>
      <trkpt lat="43.8131" lon="6.51021">
        <ele>1042</ele>
        <time>2021-08-13T19:03:26.171Z</time>
      </trkpt>
      <trkpt lat="43.81296" lon="6.51037">
        <ele>1043</ele>
        <time>2021-08-13T19:03:35.376Z</time>
      </trkpt>
      <trkpt lat="43.81249" lon="6.51068">
        <ele>1045</ele>
        <time>2021-08-13T19:03:57.897Z</time>
      </trkpt>
      <trkpt lat="43.81217" lon="6.51098">
        <ele>1043</ele>
        <time>2021-08-13T19:04:02.385Z</time>
      </trkpt>
      <trkpt lat="43.81199" lon="6.51119">
        <ele>1043</ele>
        <time>2021-08-13T19:04:08.982Z</time>
      </trkpt>
      <trkpt lat="43.8119" lon="6.51133">
        <ele>1043</ele>
        <time>2021-08-13T19:04:12.776Z</time>
      </trkpt>
      <trkpt lat="43.81173" lon="6.51168">
        <ele>1044</ele>
        <time>2021-08-13T19:04:24.986Z</time>
      </trkpt>
      <trkpt lat="43.81165" lon="6.51179">
        <ele>1043</ele>
        <time>2021-08-13T19:04:26.254Z</time>
      </trkpt>
      <trkpt lat="43.81149" lon="6.51194">
        <ele>1042</ele>
        <time>2021-08-13T19:04:28.498Z</time>
      </trkpt>
      <trkpt lat="43.8114" lon="6.51199">
        <ele>1042</ele>
        <time>2021-08-13T19:04:31.216Z</time>
      </trkpt>
      <trkpt lat="43.81124" lon="6.51203">
        <ele>1042</ele>
        <time>2021-08-13T19:04:35.775Z</time>
      </trkpt>
      <trkpt lat="43.81087" lon="6.51202">
        <ele>1041</ele>
        <time>2021-08-13T19:04:41.227Z</time>
      </trkpt>
      <trkpt lat="43.81072" lon="6.51206">
        <ele>1042</ele>
        <time>2021-08-13T19:04:49.560Z</time>
      </trkpt>
      <trkpt lat="43.81056" lon="6.51217">
        <ele>1043</ele>
        <time>2021-08-13T19:04:58.674Z</time>
      </trkpt>
      <trkpt lat="43.81032" lon="6.51224">
        <ele>1045</ele>
        <time>2021-08-13T19:05:13.832Z</time>
      </trkpt>
      <trkpt lat="43.81036" lon="6.51232">
        <ele>1046</ele>
        <time>2021-08-13T19:05:21.428Z</time>
      </trkpt>
      <trkpt lat="43.81049" lon="6.51251">
        <ele>1049</ele>
        <time>2021-08-13T19:05:41.862Z</time>
      </trkpt>
      <trkpt lat="43.8106" lon="6.51279">
        <ele>1052</ele>
        <time>2021-08-13T19:06:05.697Z</time>
      </trkpt>
      <trkpt lat="43.81072" lon="6.51318">
        <ele>1056</ele>
        <time>2021-08-13T19:06:37.546Z</time>
      </trkpt>
      <trkpt lat="43.81094" lon="6.51371">
        <ele>1063</ele>
        <time>2021-08-13T19:07:25.264Z</time>
      </trkpt>
      <trkpt lat="43.8111" lon="6.51403">
        <ele>1067</ele>
        <time>2021-08-13T19:07:55.647Z</time>
      </trkpt>
      <trkpt lat="43.81119" lon="6.51413">
        <ele>1068</ele>
        <time>2021-08-13T19:08:03.092Z</time>
      </trkpt>
      <trkpt lat="43.81149" lon="6.51422">
        <ele>1065</ele>
        <time>2021-08-13T19:08:06.545Z</time>
      </trkpt>
      <trkpt lat="43.81155" lon="6.51427">
        <ele>1064</ele>
        <time>2021-08-13T19:08:07.332Z</time>
      </trkpt>
      <trkpt lat="43.81159" lon="6.51442">
        <ele>1065</ele>
        <time>2021-08-13T19:08:14.778Z</time>
      </trkpt>
      <trkpt lat="43.81156" lon="6.51488">
        <ele>1069</ele>
        <time>2021-08-13T19:08:44.968Z</time>
      </trkpt>
      <trkpt lat="43.81153" lon="6.51505">
        <ele>1071</ele>
        <time>2021-08-13T19:08:58.626Z</time>
      </trkpt>
      <trkpt lat="43.81154" lon="6.51662">
        <ele>1070</ele>
        <time>2021-08-13T19:09:19.416Z</time>
      </trkpt>
      <trkpt lat="43.81152" lon="6.51679">
        <ele>1069</ele>
        <time>2021-08-13T19:09:20.814Z</time>
      </trkpt>
      <trkpt lat="43.81143" lon="6.51699">
        <ele>1070</ele>
        <time>2021-08-13T19:09:29.662Z</time>
      </trkpt>
      <trkpt lat="43.81127" lon="6.51709">
        <ele>1073</ele>
        <time>2021-08-13T19:09:48.645Z</time>
      </trkpt>
      <trkpt lat="43.8109" lon="6.51708">
        <ele>1082</ele>
        <time>2021-08-13T19:10:28.668Z</time>
      </trkpt>
      <trkpt lat="43.81059" lon="6.51702">
        <ele>1089</ele>
        <time>2021-08-13T19:11:02.519Z</time>
      </trkpt>
      <trkpt lat="43.81043" lon="6.51703">
        <ele>1091</ele>
        <time>2021-08-13T19:11:17.933Z</time>
      </trkpt>
      <trkpt lat="43.81006" lon="6.51681">
        <ele>1099</ele>
        <time>2021-08-13T19:12:01.477Z</time>
      </trkpt>
      <trkpt lat="43.80985" lon="6.51666">
        <ele>1101</ele>
        <time>2021-08-13T19:12:16.462Z</time>
      </trkpt>
      <trkpt lat="43.80977" lon="6.51661">
        <ele>1102</ele>
        <time>2021-08-13T19:12:23.868Z</time>
      </trkpt>
      <trkpt lat="43.80969" lon="6.51659">
        <ele>1103</ele>
        <time>2021-08-13T19:12:31.509Z</time>
      </trkpt>
      <trkpt lat="43.80962" lon="6.51662">
        <ele>1104</ele>
        <time>2021-08-13T19:12:39.433Z</time>
      </trkpt>
      <trkpt lat="43.80937" lon="6.51685">
        <ele>1106</ele>
        <time>2021-08-13T19:12:55.946Z</time>
      </trkpt>
      <trkpt lat="43.80899" lon="6.51706">
        <ele>1108</ele>
        <time>2021-08-13T19:13:15.858Z</time>
      </trkpt>
      <trkpt lat="43.80887" lon="6.51721">
        <ele>1107</ele>
        <time>2021-08-13T19:13:17.587Z</time>
      </trkpt>
      <trkpt lat="43.80873" lon="6.51734">
        <ele>1105</ele>
        <time>2021-08-13T19:13:19.482Z</time>
      </trkpt>
      <trkpt lat="43.80869" lon="6.5174">
        <ele>1104</ele>
        <time>2021-08-13T19:13:20.145Z</time>
      </trkpt>
      <trkpt lat="43.80862" lon="6.51757">
        <ele>1103</ele>
        <time>2021-08-13T19:13:21.734Z</time>
      </trkpt>
      <trkpt lat="43.80854" lon="6.51791">
        <ele>1105</ele>
        <time>2021-08-13T19:13:37.167Z</time>
      </trkpt>
      <trkpt lat="43.80848" lon="6.51801">
        <ele>1106</ele>
        <time>2021-08-13T19:13:44.477Z</time>
      </trkpt>
      <trkpt lat="43.80805" lon="6.51836">
        <ele>1102</ele>
        <time>2021-08-13T19:13:50.087Z</time>
      </trkpt>
      <trkpt lat="43.80793" lon="6.5185">
        <ele>1103</ele>
        <time>2021-08-13T19:13:58.539Z</time>
      </trkpt>
      <trkpt lat="43.80762" lon="6.51893">
        <ele>1106</ele>
        <time>2021-08-13T19:14:22.991Z</time>
      </trkpt>
      <trkpt lat="43.80732" lon="6.51926">
        <ele>1104</ele>
        <time>2021-08-13T19:14:27.423Z</time>
      </trkpt>
      <trkpt lat="43.80725" lon="6.51935">
        <ele>1103</ele>
        <time>2021-08-13T19:14:28.498Z</time>
      </trkpt>
      <trkpt lat="43.80711" lon="6.51981">
        <ele>1106</ele>
        <time>2021-08-13T19:14:51.085Z</time>
      </trkpt>
      <trkpt lat="43.80689" lon="6.52067">
        <ele>1110</ele>
        <time>2021-08-13T19:15:25.813Z</time>
      </trkpt>
      <trkpt lat="43.80666" lon="6.52124">
        <ele>1111</ele>
        <time>2021-08-13T19:15:42.215Z</time>
      </trkpt>
      <trkpt lat="43.80655" lon="6.52155">
        <ele>1113</ele>
        <time>2021-08-13T19:15:57.456Z</time>
      </trkpt>
      <trkpt lat="43.80641" lon="6.52187">
        <ele>1113</ele>
        <time>2021-08-13T19:16:05.028Z</time>
      </trkpt>
      <trkpt lat="43.80628" lon="6.52211">
        <ele>1112</ele>
        <time>2021-08-13T19:16:07.670Z</time>
      </trkpt>
      <trkpt lat="43.80614" lon="6.52228">
        <ele>1108</ele>
        <time>2021-08-13T19:16:09.764Z</time>
      </trkpt>
      <trkpt lat="43.80612" lon="6.52237">
        <ele>1109</ele>
        <time>2021-08-13T19:16:17.114Z</time>
      </trkpt>
      <trkpt lat="43.80612" lon="6.52245">
        <ele>1110</ele>
        <time>2021-08-13T19:16:23.358Z</time>
      </trkpt>
      <trkpt lat="43.80622" lon="6.5229">
        <ele>1118</ele>
        <time>2021-08-13T19:17:00.108Z</time>
      </trkpt>
      <trkpt lat="43.8062" lon="6.52316">
        <ele>1120</ele>
        <time>2021-08-13T19:17:14.719Z</time>
      </trkpt>
      <trkpt lat="43.80609" lon="6.5235">
        <ele>1119</ele>
        <time>2021-08-13T19:17:18.288Z</time>
      </trkpt>
      <trkpt lat="43.80584" lon="6.52405">
        <ele>1117</ele>
        <time>2021-08-13T19:17:24.198Z</time>
      </trkpt>
      <trkpt lat="43.80573" lon="6.52421">
        <ele>1117</ele>
        <time>2021-08-13T19:17:28.670Z</time>
      </trkpt>
      <trkpt lat="43.80557" lon="6.52435">
        <ele>1116</ele>
        <time>2021-08-13T19:17:30.848Z</time>
      </trkpt>
      <trkpt lat="43.80535" lon="6.52449">
        <ele>1113</ele>
        <time>2021-08-13T19:17:33.571Z</time>
      </trkpt>
      <trkpt lat="43.80515" lon="6.52458">
        <ele>1110</ele>
        <time>2021-08-13T19:17:35.937Z</time>
      </trkpt>
      <trkpt lat="43.80479" lon="6.52469">
        <ele>1106</ele>
        <time>2021-08-13T19:17:40.083Z</time>
      </trkpt>
      <trkpt lat="43.8046" lon="6.52472">
        <ele>1103</ele>
        <time>2021-08-13T19:17:42.234Z</time>
      </trkpt>
      <trkpt lat="43.80442" lon="6.5248">
        <ele>1102</ele>
        <time>2021-08-13T19:17:44.409Z</time>
      </trkpt>
      <trkpt lat="43.80411" lon="6.52504">
        <ele>1102</ele>
        <time>2021-08-13T19:17:54.366Z</time>
      </trkpt>
      <trkpt lat="43.80398" lon="6.52518">
        <ele>1102</ele>
        <time>2021-08-13T19:17:58.983Z</time>
      </trkpt>
      <trkpt lat="43.80382" lon="6.52542">
        <ele>1103</ele>
        <time>2021-08-13T19:18:09.794Z</time>
      </trkpt>
      <trkpt lat="43.80356" lon="6.52593">
        <ele>1104</ele>
        <time>2021-08-13T19:18:25.653Z</time>
      </trkpt>
      <trkpt lat="43.80329" lon="6.52641">
        <ele>1103</ele>
        <time>2021-08-13T19:18:32.436Z</time>
      </trkpt>
      <trkpt lat="43.80305" lon="6.52692">
        <ele>1103</ele>
        <time>2021-08-13T19:18:44.756Z</time>
      </trkpt>
      <trkpt lat="43.80275" lon="6.52734">
        <ele>1097</ele>
        <time>2021-08-13T19:18:49.553Z</time>
      </trkpt>
      <trkpt lat="43.80247" lon="6.52781">
        <ele>1092</ele>
        <time>2021-08-13T19:18:54.501Z</time>
      </trkpt>
      <trkpt lat="43.80206" lon="6.52857">
        <ele>1089</ele>
        <time>2021-08-13T19:19:03.037Z</time>
      </trkpt>
      <trkpt lat="43.80178" lon="6.52879">
        <ele>1082</ele>
        <time>2021-08-13T19:19:06.658Z</time>
      </trkpt>
      <trkpt lat="43.80168" lon="6.52896">
        <ele>1081</ele>
        <time>2021-08-13T19:19:08.333Z</time>
      </trkpt>
      <trkpt lat="43.80138" lon="6.52968">
        <ele>1081</ele>
        <time>2021-08-13T19:19:25.157Z</time>
      </trkpt>
      <trkpt lat="43.80132" lon="6.52978">
        <ele>1081</ele>
        <time>2021-08-13T19:19:27.789Z</time>
      </trkpt>
      <trkpt lat="43.80125" lon="6.52981">
        <ele>1079</ele>
        <time>2021-08-13T19:19:28.613Z</time>
      </trkpt>
      <trkpt lat="43.8012" lon="6.52977">
        <ele>1077</ele>
        <time>2021-08-13T19:19:29.262Z</time>
      </trkpt>
      <trkpt lat="43.80111" lon="6.52963">
        <ele>1072</ele>
        <time>2021-08-13T19:19:30.784Z</time>
      </trkpt>
      <trkpt lat="43.80102" lon="6.52961">
        <ele>1069</ele>
        <time>2021-08-13T19:19:31.810Z</time>
      </trkpt>
      <trkpt lat="43.80079" lon="6.52989">
        <ele>1065</ele>
        <time>2021-08-13T19:19:35.254Z</time>
      </trkpt>
      <trkpt lat="43.80068" lon="6.53011">
        <ele>1064</ele>
        <time>2021-08-13T19:19:37.498Z</time>
      </trkpt>
      <trkpt lat="43.80059" lon="6.53041">
        <ele>1063</ele>
        <time>2021-08-13T19:19:40.452Z</time>
      </trkpt>
      <trkpt lat="43.80048" lon="6.53095">
        <ele>1062</ele>
        <time>2021-08-13T19:19:46.572Z</time>
      </trkpt>
      <trkpt lat="43.80027" lon="6.53145">
        <ele>1058</ele>
        <time>2021-08-13T19:19:51.269Z</time>
      </trkpt>
      <trkpt lat="43.80016" lon="6.53164">
        <ele>1056</ele>
        <time>2021-08-13T19:19:53.246Z</time>
      </trkpt>
      <trkpt lat="43.8001" lon="6.53181">
        <ele>1055</ele>
        <time>2021-08-13T19:19:54.783Z</time>
      </trkpt>
      <trkpt lat="43.79996" lon="6.53238">
        <ele>1054</ele>
        <time>2021-08-13T19:20:01.475Z</time>
      </trkpt>
      <trkpt lat="43.79976" lon="6.53283">
        <ele>1051</ele>
        <time>2021-08-13T19:20:05.766Z</time>
      </trkpt>
      <trkpt lat="43.79951" lon="6.53319">
        <ele>1048</ele>
        <time>2021-08-13T19:20:09.822Z</time>
      </trkpt>
      <trkpt lat="43.79936" lon="6.53337">
        <ele>1046</ele>
        <time>2021-08-13T19:20:12.054Z</time>
      </trkpt>
      <trkpt lat="43.79891" lon="6.53356">
        <ele>1040</ele>
        <time>2021-08-13T19:20:17.346Z</time>
      </trkpt>
      <trkpt lat="43.79876" lon="6.53367">
        <ele>1039</ele>
        <time>2021-08-13T19:20:19.204Z</time>
      </trkpt>
      <trkpt lat="43.79836" lon="6.53388">
        <ele>1037</ele>
        <time>2021-08-13T19:20:24.395Z</time>
      </trkpt>
      <trkpt lat="43.79815" lon="6.53396">
        <ele>1034</ele>
        <time>2021-08-13T19:20:26.845Z</time>
      </trkpt>
      <trkpt lat="43.79792" lon="6.53402">
        <ele>1030</ele>
        <time>2021-08-13T19:20:29.478Z</time>
      </trkpt>
      <trkpt lat="43.79776" lon="6.53415">
        <ele>1030</ele>
        <time>2021-08-13T19:20:34.678Z</time>
      </trkpt>
      <trkpt lat="43.79759" lon="6.5345">
        <ele>1031</ele>
        <time>2021-08-13T19:20:46.889Z</time>
      </trkpt>
      <trkpt lat="43.79732" lon="6.53487">
        <ele>1029</ele>
        <time>2021-08-13T19:20:51.267Z</time>
      </trkpt>
      <trkpt lat="43.79701" lon="6.5352">
        <ele>1025</ele>
        <time>2021-08-13T19:20:55.665Z</time>
      </trkpt>
      <trkpt lat="43.79646" lon="6.53556">
        <ele>1015</ele>
        <time>2021-08-13T19:21:02.507Z</time>
      </trkpt>
      <trkpt lat="43.7962" lon="6.5359">
        <ele>1014</ele>
        <time>2021-08-13T19:21:07.721Z</time>
      </trkpt>
      <trkpt lat="43.79608" lon="6.53633">
        <ele>1016</ele>
        <time>2021-08-13T19:21:25.192Z</time>
      </trkpt>
      <trkpt lat="43.79605" lon="6.53651">
        <ele>1018</ele>
        <time>2021-08-13T19:21:39.613Z</time>
      </trkpt>
      <trkpt lat="43.79594" lon="6.53655">
        <ele>1015</ele>
        <time>2021-08-13T19:21:40.892Z</time>
      </trkpt>
      <trkpt lat="43.79586" lon="6.53642">
        <ele>1010</ele>
        <time>2021-08-13T19:21:42.279Z</time>
      </trkpt>
      <trkpt lat="43.79578" lon="6.53611">
        <ele>1003</ele>
        <time>2021-08-13T19:21:44.952Z</time>
      </trkpt>
      <trkpt lat="43.7957" lon="6.53615">
        <ele>1001</ele>
        <time>2021-08-13T19:21:45.909Z</time>
      </trkpt>
      <trkpt lat="43.79553" lon="6.53686">
        <ele>1005</ele>
        <time>2021-08-13T19:22:17.340Z</time>
      </trkpt>
      <trkpt lat="43.79539" lon="6.5371">
        <ele>1004</ele>
        <time>2021-08-13T19:22:20.089Z</time>
      </trkpt>
      <trkpt lat="43.79527" lon="6.53701">
        <ele>999</ele>
        <time>2021-08-13T19:22:21.624Z</time>
      </trkpt>
      <trkpt lat="43.79526" lon="6.53689">
        <ele>997</ele>
        <time>2021-08-13T19:22:22.605Z</time>
      </trkpt>
      <trkpt lat="43.79527" lon="6.53673">
        <ele>995</ele>
        <time>2021-08-13T19:22:23.909Z</time>
      </trkpt>
      <trkpt lat="43.79524" lon="6.53659">
        <ele>992</ele>
        <time>2021-08-13T19:22:25.095Z</time>
      </trkpt>
      <trkpt lat="43.79512" lon="6.5366">
        <ele>989</ele>
        <time>2021-08-13T19:22:26.447Z</time>
      </trkpt>
      <trkpt lat="43.79494" lon="6.53684">
        <ele>986</ele>
        <time>2021-08-13T19:22:29.257Z</time>
      </trkpt>
      <trkpt lat="43.79492" lon="6.53714">
        <ele>989</ele>
        <time>2021-08-13T19:22:52.776Z</time>
      </trkpt>
      <trkpt lat="43.79488" lon="6.53726">
        <ele>989</ele>
        <time>2021-08-13T19:22:55.451Z</time>
      </trkpt>
      <trkpt lat="43.79475" lon="6.53728">
        <ele>986</ele>
        <time>2021-08-13T19:22:56.922Z</time>
      </trkpt>
      <trkpt lat="43.7946" lon="6.53722">
        <ele>982</ele>
        <time>2021-08-13T19:22:58.679Z</time>
      </trkpt>
      <trkpt lat="43.79446" lon="6.53712">
        <ele>977</ele>
        <time>2021-08-13T19:23:00.450Z</time>
      </trkpt>
      <trkpt lat="43.79436" lon="6.5371">
        <ele>974</ele>
        <time>2021-08-13T19:23:01.587Z</time>
      </trkpt>
      <trkpt lat="43.79407" lon="6.53722">
        <ele>968</ele>
        <time>2021-08-13T19:23:04.991Z</time>
      </trkpt>
      <trkpt lat="43.79382" lon="6.53742">
        <ele>965</ele>
        <time>2021-08-13T19:23:08.239Z</time>
      </trkpt>
      <trkpt lat="43.79357" lon="6.53792">
        <ele>968</ele>
        <time>2021-08-13T19:23:32.702Z</time>
      </trkpt>
      <trkpt lat="43.79338" lon="6.53808">
        <ele>967</ele>
        <time>2021-08-13T19:23:35.444Z</time>
      </trkpt>
      <trkpt lat="43.7933" lon="6.53824">
        <ele>967</ele>
        <time>2021-08-13T19:23:39.383Z</time>
      </trkpt>
      <trkpt lat="43.79289" lon="6.53876">
        <ele>967</ele>
        <time>2021-08-13T19:23:54.969Z</time>
      </trkpt>
      <trkpt lat="43.79272" lon="6.5389">
        <ele>965</ele>
        <time>2021-08-13T19:23:57.194Z</time>
      </trkpt>
      <trkpt lat="43.79253" lon="6.53911">
        <ele>965</ele>
        <time>2021-08-13T19:24:04.009Z</time>
      </trkpt>
      <trkpt lat="43.79238" lon="6.53951">
        <ele>965</ele>
        <time>2021-08-13T19:24:13.132Z</time>
      </trkpt>
      <trkpt lat="43.7922" lon="6.54029">
        <ele>965</ele>
        <time>2021-08-13T19:24:29.706Z</time>
      </trkpt>
      <trkpt lat="43.79215" lon="6.54056">
        <ele>964</ele>
        <time>2021-08-13T19:24:32.086Z</time>
      </trkpt>
      <trkpt lat="43.79193" lon="6.54133">
        <ele>958</ele>
        <time>2021-08-13T19:24:38.810Z</time>
      </trkpt>
      <trkpt lat="43.79188" lon="6.54159">
        <ele>956</ele>
        <time>2021-08-13T19:24:40.995Z</time>
      </trkpt>
      <trkpt lat="43.7918" lon="6.54187">
        <ele>954</ele>
        <time>2021-08-13T19:24:43.440Z</time>
      </trkpt>
      <trkpt lat="43.79168" lon="6.54218">
        <ele>953</ele>
        <time>2021-08-13T19:24:46.739Z</time>
      </trkpt>
      <trkpt lat="43.79155" lon="6.54227">
        <ele>951</ele>
        <time>2021-08-13T19:24:48.374Z</time>
      </trkpt>
      <trkpt lat="43.79147" lon="6.5422">
        <ele>950</ele>
        <time>2021-08-13T19:24:49.438Z</time>
      </trkpt>
      <trkpt lat="43.79134" lon="6.54176">
        <ele>946</ele>
        <time>2021-08-13T19:24:53.298Z</time>
      </trkpt>
      <trkpt lat="43.7912" lon="6.54149">
        <ele>944</ele>
        <time>2021-08-13T19:24:55.998Z</time>
      </trkpt>
      <trkpt lat="43.79107" lon="6.5414">
        <ele>942</ele>
        <time>2021-08-13T19:24:57.633Z</time>
      </trkpt>
      <trkpt lat="43.79083" lon="6.54147">
        <ele>938</ele>
        <time>2021-08-13T19:25:00.391Z</time>
      </trkpt>
      <trkpt lat="43.79011" lon="6.54187">
        <ele>923</ele>
        <time>2021-08-13T19:25:09.117Z</time>
      </trkpt>
      <trkpt lat="43.79005" lon="6.54207">
        <ele>921</ele>
        <time>2021-08-13T19:25:10.876Z</time>
      </trkpt>
      <trkpt lat="43.79" lon="6.5423">
        <ele>919</ele>
        <time>2021-08-13T19:25:12.826Z</time>
      </trkpt>
      <trkpt lat="43.78993" lon="6.54307">
        <ele>919</ele>
        <time>2021-08-13T19:25:28.535Z</time>
      </trkpt>
      <trkpt lat="43.79025" lon="6.54365">
        <ele>922</ele>
        <time>2021-08-13T19:25:55.600Z</time>
      </trkpt>
      <trkpt lat="43.79048" lon="6.54395">
        <ele>922</ele>
        <time>2021-08-13T19:26:04.457Z</time>
      </trkpt>
      <trkpt lat="43.79061" lon="6.54416">
        <ele>922</ele>
        <time>2021-08-13T19:26:10.057Z</time>
      </trkpt>
      <trkpt lat="43.79097" lon="6.54457">
        <ele>920</ele>
        <time>2021-08-13T19:26:15.914Z</time>
      </trkpt>
      <trkpt lat="43.79159" lon="6.54484">
        <ele>920</ele>
        <time>2021-08-13T19:26:34.136Z</time>
      </trkpt>
      <trkpt lat="43.79186" lon="6.54504">
        <ele>916</ele>
        <time>2021-08-13T19:26:37.580Z</time>
      </trkpt>
      <trkpt lat="43.79221" lon="6.54535">
        <ele>911</ele>
        <time>2021-08-13T19:26:42.253Z</time>
      </trkpt>
      <trkpt lat="43.79236" lon="6.54556">
        <ele>908</ele>
        <time>2021-08-13T19:26:44.652Z</time>
      </trkpt>
      <trkpt lat="43.79251" lon="6.5457">
        <ele>905</ele>
        <time>2021-08-13T19:26:46.687Z</time>
      </trkpt>
      <trkpt lat="43.79284" lon="6.54571">
        <ele>901</ele>
        <time>2021-08-13T19:26:50.399Z</time>
      </trkpt>
      <trkpt lat="43.79305" lon="6.5456">
        <ele>900</ele>
        <time>2021-08-13T19:26:53.179Z</time>
      </trkpt>
      <trkpt lat="43.79318" lon="6.54547">
        <ele>900</ele>
        <time>2021-08-13T19:26:57.675Z</time>
      </trkpt>
      <trkpt lat="43.79329" lon="6.54543">
        <ele>899</ele>
        <time>2021-08-13T19:26:58.954Z</time>
      </trkpt>
      <trkpt lat="43.79336" lon="6.54547">
        <ele>898</ele>
        <time>2021-08-13T19:26:59.806Z</time>
      </trkpt>
      <trkpt lat="43.7935" lon="6.54559">
        <ele>897</ele>
        <time>2021-08-13T19:27:01.582Z</time>
      </trkpt>
      <trkpt lat="43.79366" lon="6.5458">
        <ele>895</ele>
        <time>2021-08-13T19:27:04.061Z</time>
      </trkpt>
      <trkpt lat="43.79382" lon="6.54597">
        <ele>893</ele>
        <time>2021-08-13T19:27:06.329Z</time>
      </trkpt>
      <trkpt lat="43.7941" lon="6.54613">
        <ele>892</ele>
        <time>2021-08-13T19:27:10.519Z</time>
      </trkpt>
      <trkpt lat="43.79421" lon="6.54615">
        <ele>892</ele>
        <time>2021-08-13T19:27:13.630Z</time>
      </trkpt>
      <trkpt lat="43.79439" lon="6.54615">
        <ele>892</ele>
        <time>2021-08-13T19:27:18.677Z</time>
      </trkpt>
      <trkpt lat="43.79494" lon="6.54588">
        <ele>895</ele>
        <time>2021-08-13T19:27:47.552Z</time>
      </trkpt>
      <trkpt lat="43.7954" lon="6.54569">
        <ele>895</ele>
        <time>2021-08-13T19:28:01.011Z</time>
      </trkpt>
      <trkpt lat="43.79568" lon="6.54563">
        <ele>894</ele>
        <time>2021-08-13T19:28:04.841Z</time>
      </trkpt>
      <trkpt lat="43.79633" lon="6.54565">
        <ele>894</ele>
        <time>2021-08-13T19:28:23.071Z</time>
      </trkpt>
      <trkpt lat="43.79638" lon="6.54565">
        <ele>894</ele>
        <time>2021-08-13T19:28:24.473Z</time>
      </trkpt>
      <trkpt lat="43.79682" lon="6.54571">
        <ele>895</ele>
        <time>2021-08-13T19:28:40.109Z</time>
      </trkpt>
      <trkpt lat="43.79703" lon="6.5457">
        <ele>896</ele>
        <time>2021-08-13T19:28:50.251Z</time>
      </trkpt>
      <trkpt lat="43.79728" lon="6.54566">
        <ele>897</ele>
        <time>2021-08-13T19:29:01.345Z</time>
      </trkpt>
      <trkpt lat="43.79773" lon="6.54545">
        <ele>900</ele>
        <time>2021-08-13T19:29:26.825Z</time>
      </trkpt>
      <trkpt lat="43.79795" lon="6.54541">
        <ele>901</ele>
        <time>2021-08-13T19:29:37.363Z</time>
      </trkpt>
      <trkpt lat="43.79819" lon="6.54549">
        <ele>900</ele>
        <time>2021-08-13T19:29:40.536Z</time>
      </trkpt>
      <trkpt lat="43.79888" lon="6.54575">
        <ele>903</ele>
        <time>2021-08-13T19:30:13.099Z</time>
      </trkpt>
      <trkpt lat="43.79903" lon="6.54589">
        <ele>904</ele>
        <time>2021-08-13T19:30:22.285Z</time>
      </trkpt>
      <trkpt lat="43.79916" lon="6.54593">
        <ele>905</ele>
        <time>2021-08-13T19:30:30.098Z</time>
      </trkpt>
      <trkpt lat="43.79928" lon="6.54594">
        <ele>906</ele>
        <time>2021-08-13T19:30:37.629Z</time>
      </trkpt>
      <trkpt lat="43.79935" lon="6.54602">
        <ele>906</ele>
        <time>2021-08-13T19:30:40.174Z</time>
      </trkpt>
      <trkpt lat="43.79959" lon="6.54645">
        <ele>907</ele>
        <time>2021-08-13T19:30:54.525Z</time>
      </trkpt>
      <trkpt lat="43.79963" lon="6.54657">
        <ele>907</ele>
        <time>2021-08-13T19:30:57.200Z</time>
      </trkpt>
      <trkpt lat="43.79967" lon="6.54704">
        <ele>908</ele>
        <time>2021-08-13T19:31:10.286Z</time>
      </trkpt>
      <trkpt lat="43.79972" lon="6.54729">
        <ele>910</ele>
        <time>2021-08-13T19:31:24.910Z</time>
      </trkpt>
      <trkpt lat="43.79987" lon="6.54782">
        <ele>914</ele>
        <time>2021-08-13T19:31:54.116Z</time>
      </trkpt>
      <trkpt lat="43.79998" lon="6.54805">
        <ele>915</ele>
        <time>2021-08-13T19:32:03.893Z</time>
      </trkpt>
      <trkpt lat="43.80005" lon="6.54813">
        <ele>915</ele>
        <time>2021-08-13T19:32:06.437Z</time>
      </trkpt>
      <trkpt lat="43.80026" lon="6.54822">
        <ele>916</ele>
        <time>2021-08-13T19:32:16.905Z</time>
      </trkpt>
      <trkpt lat="43.80038" lon="6.54817">
        <ele>917</ele>
        <time>2021-08-13T19:32:24.539Z</time>
      </trkpt>
      <trkpt lat="43.80054" lon="6.54787">
        <ele>920</ele>
        <time>2021-08-13T19:32:46.630Z</time>
      </trkpt>
      <trkpt lat="43.80076" lon="6.54756">
        <ele>922</ele>
        <time>2021-08-13T19:33:03.536Z</time>
      </trkpt>
      <trkpt lat="43.80095" lon="6.54744">
        <ele>925</ele>
        <time>2021-08-13T19:33:26.119Z</time>
      </trkpt>
      <trkpt lat="43.80106" lon="6.54743">
        <ele>927</ele>
        <time>2021-08-13T19:33:38.041Z</time>
      </trkpt>
      <trkpt lat="43.80138" lon="6.54749">
        <ele>933</ele>
        <time>2021-08-13T19:34:12.964Z</time>
      </trkpt>
      <trkpt lat="43.80147" lon="6.54746">
        <ele>934</ele>
        <time>2021-08-13T19:34:20.286Z</time>
      </trkpt>
      <trkpt lat="43.80204" lon="6.54714">
        <ele>941</ele>
        <time>2021-08-13T19:35:12.108Z</time>
      </trkpt>
      <trkpt lat="43.80229" lon="6.54704">
        <ele>945</ele>
        <time>2021-08-13T19:35:40.249Z</time>
      </trkpt>
      <trkpt lat="43.8026" lon="6.54678">
        <ele>948</ele>
        <time>2021-08-13T19:36:02.876Z</time>
      </trkpt>
      <trkpt lat="43.8027" lon="6.54662">
        <ele>949</ele>
        <time>2021-08-13T19:36:11.210Z</time>
      </trkpt>
      <trkpt lat="43.80298" lon="6.54608">
        <ele>953</ele>
        <time>2021-08-13T19:36:41.317Z</time>
      </trkpt>
      <trkpt lat="43.80305" lon="6.54573">
        <ele>953</ele>
        <time>2021-08-13T19:36:48.666Z</time>
      </trkpt>
      <trkpt lat="43.80303" lon="6.54555">
        <ele>952</ele>
        <time>2021-08-13T19:36:50.145Z</time>
      </trkpt>
      <trkpt lat="43.80307" lon="6.54533">
        <ele>952</ele>
        <time>2021-08-13T19:36:54.736Z</time>
      </trkpt>
      <trkpt lat="43.80328" lon="6.54477">
        <ele>955</ele>
        <time>2021-08-13T19:37:19.657Z</time>
      </trkpt>
      <trkpt lat="43.80333" lon="6.5446">
        <ele>956</ele>
        <time>2021-08-13T19:37:27.454Z</time>
      </trkpt>
      <trkpt lat="43.80341" lon="6.54406">
        <ele>958</ele>
        <time>2021-08-13T19:37:46.994Z</time>
      </trkpt>
      <trkpt lat="43.80335" lon="6.54356">
        <ele>958</ele>
        <time>2021-08-13T19:37:57.251Z</time>
      </trkpt>
      <trkpt lat="43.80335" lon="6.54346">
        <ele>958</ele>
        <time>2021-08-13T19:37:59.275Z</time>
      </trkpt>
      <trkpt lat="43.80348" lon="6.54307">
        <ele>963</ele>
        <time>2021-08-13T19:38:32.805Z</time>
      </trkpt>
      <trkpt lat="43.80346" lon="6.54256">
        <ele>964</ele>
        <time>2021-08-13T19:38:46.558Z</time>
      </trkpt>
      <trkpt lat="43.80347" lon="6.54236">
        <ele>963</ele>
        <time>2021-08-13T19:38:48.186Z</time>
      </trkpt>
      <trkpt lat="43.80352" lon="6.54214">
        <ele>964</ele>
        <time>2021-08-13T19:38:56.924Z</time>
      </trkpt>
      <trkpt lat="43.80362" lon="6.54198">
        <ele>965</ele>
        <time>2021-08-13T19:39:05.258Z</time>
      </trkpt>
      <trkpt lat="43.80371" lon="6.54193">
        <ele>967</ele>
        <time>2021-08-13T19:39:15.744Z</time>
      </trkpt>
      <trkpt lat="43.80379" lon="6.54194">
        <ele>969</ele>
        <time>2021-08-13T19:39:24.431Z</time>
      </trkpt>
      <trkpt lat="43.80384" lon="6.54197">
        <ele>970</ele>
        <time>2021-08-13T19:39:30.324Z</time>
      </trkpt>
      <trkpt lat="43.80389" lon="6.54203">
        <ele>971</ele>
        <time>2021-08-13T19:39:37.478Z</time>
      </trkpt>
      <trkpt lat="43.804" lon="6.54254">
        <ele>975</ele>
        <time>2021-08-13T19:40:06.661Z</time>
      </trkpt>
      <trkpt lat="43.8041" lon="6.54281">
        <ele>978</ele>
        <time>2021-08-13T19:40:30.348Z</time>
      </trkpt>
      <trkpt lat="43.80415" lon="6.54303">
        <ele>980</ele>
        <time>2021-08-13T19:40:45.451Z</time>
      </trkpt>
      <trkpt lat="43.80416" lon="6.54315">
        <ele>980</ele>
        <time>2021-08-13T19:40:47.895Z</time>
      </trkpt>
      <trkpt lat="43.80412" lon="6.54341">
        <ele>980</ele>
        <time>2021-08-13T19:40:53.275Z</time>
      </trkpt>
      <trkpt lat="43.80411" lon="6.5436">
        <ele>980</ele>
        <time>2021-08-13T19:40:57.130Z</time>
      </trkpt>
      <trkpt lat="43.80417" lon="6.54412">
        <ele>984</ele>
        <time>2021-08-13T19:41:26.335Z</time>
      </trkpt>
      <trkpt lat="43.80416" lon="6.54435">
        <ele>984</ele>
        <time>2021-08-13T19:41:30.997Z</time>
      </trkpt>
      <trkpt lat="43.80418" lon="6.54466">
        <ele>986</ele>
        <time>2021-08-13T19:41:45.795Z</time>
      </trkpt>
      <trkpt lat="43.80423" lon="6.54495">
        <ele>989</ele>
        <time>2021-08-13T19:42:09.067Z</time>
      </trkpt>
      <trkpt lat="43.80439" lon="6.54555">
        <ele>993</ele>
        <time>2021-08-13T19:42:38.852Z</time>
      </trkpt>
      <trkpt lat="43.80448" lon="6.54577">
        <ele>996</ele>
        <time>2021-08-13T19:42:58.590Z</time>
      </trkpt>
      <trkpt lat="43.80464" lon="6.54607">
        <ele>1001</ele>
        <time>2021-08-13T19:43:27.706Z</time>
      </trkpt>
      <trkpt lat="43.80475" lon="6.54637">
        <ele>1004</ele>
        <time>2021-08-13T19:43:50.682Z</time>
      </trkpt>
      <trkpt lat="43.80482" lon="6.54666">
        <ele>1005</ele>
        <time>2021-08-13T19:44:01.179Z</time>
      </trkpt>
      <trkpt lat="43.80488" lon="6.54725">
        <ele>1004</ele>
        <time>2021-08-13T19:44:07.783Z</time>
      </trkpt>
      <trkpt lat="43.80494" lon="6.54757">
        <ele>1004</ele>
        <time>2021-08-13T19:44:14.474Z</time>
      </trkpt>
      <trkpt lat="43.80507" lon="6.54806">
        <ele>1006</ele>
        <time>2021-08-13T19:44:33.326Z</time>
      </trkpt>
      <trkpt lat="43.80514" lon="6.54849">
        <ele>1003</ele>
        <time>2021-08-13T19:44:36.905Z</time>
      </trkpt>
      <trkpt lat="43.80522" lon="6.5486">
        <ele>1002</ele>
        <time>2021-08-13T19:44:38.173Z</time>
      </trkpt>
      <trkpt lat="43.80527" lon="6.54863">
        <ele>1002</ele>
        <time>2021-08-13T19:44:39.700Z</time>
      </trkpt>
      <trkpt lat="43.80533" lon="6.54863">
        <ele>1003</ele>
        <time>2021-08-13T19:44:46.189Z</time>
      </trkpt>
      <trkpt lat="43.80579" lon="6.54854">
        <ele>1013</ele>
        <time>2021-08-13T19:45:36.431Z</time>
      </trkpt>
      <trkpt lat="43.80603" lon="6.54844">
        <ele>1019</ele>
        <time>2021-08-13T19:46:03.535Z</time>
      </trkpt>
      <trkpt lat="43.80634" lon="6.5482">
        <ele>1026</ele>
        <time>2021-08-13T19:46:41.940Z</time>
      </trkpt>
      <trkpt lat="43.80651" lon="6.54821">
        <ele>1028</ele>
        <time>2021-08-13T19:46:56.904Z</time>
      </trkpt>
      <trkpt lat="43.8066" lon="6.54833">
        <ele>1026</ele>
        <time>2021-08-13T19:46:58.309Z</time>
      </trkpt>
      <trkpt lat="43.80669" lon="6.54853">
        <ele>1026</ele>
        <time>2021-08-13T19:47:03.078Z</time>
      </trkpt>
      <trkpt lat="43.8068" lon="6.54865">
        <ele>1026</ele>
        <time>2021-08-13T19:47:07.004Z</time>
      </trkpt>
      <trkpt lat="43.80716" lon="6.54864">
        <ele>1032</ele>
        <time>2021-08-13T19:47:45.945Z</time>
      </trkpt>
      <trkpt lat="43.80747" lon="6.54885">
        <ele>1034</ele>
        <time>2021-08-13T19:48:03.794Z</time>
      </trkpt>
      <trkpt lat="43.8077" lon="6.54892">
        <ele>1034</ele>
        <time>2021-08-13T19:48:10.396Z</time>
      </trkpt>
      <trkpt lat="43.80808" lon="6.54891">
        <ele>1035</ele>
        <time>2021-08-13T19:48:24.437Z</time>
      </trkpt>
      <trkpt lat="43.80831" lon="6.5488">
        <ele>1038</ele>
        <time>2021-08-13T19:48:47.388Z</time>
      </trkpt>
      <trkpt lat="43.80847" lon="6.54869">
        <ele>1039</ele>
        <time>2021-08-13T19:48:56.503Z</time>
      </trkpt>
      <trkpt lat="43.80864" lon="6.54849">
        <ele>1042</ele>
        <time>2021-08-13T19:49:20.621Z</time>
      </trkpt>
      <trkpt lat="43.809" lon="6.54789">
        <ele>1051</ele>
        <time>2021-08-13T19:50:21.519Z</time>
      </trkpt>
      <trkpt lat="43.80912" lon="6.54776">
        <ele>1053</ele>
        <time>2021-08-13T19:50:37.500Z</time>
      </trkpt>
      <trkpt lat="43.8093" lon="6.54773">
        <ele>1054</ele>
        <time>2021-08-13T19:50:46.700Z</time>
      </trkpt>
      <trkpt lat="43.80949" lon="6.54778">
        <ele>1053</ele>
        <time>2021-08-13T19:50:48.948Z</time>
      </trkpt>
      <trkpt lat="43.80977" lon="6.54767">
        <ele>1055</ele>
        <time>2021-08-13T19:51:05.211Z</time>
      </trkpt>
      <trkpt lat="43.80984" lon="6.54774">
        <ele>1054</ele>
        <time>2021-08-13T19:51:06.182Z</time>
      </trkpt>
      <trkpt lat="43.80984" lon="6.54787">
        <ele>1053</ele>
        <time>2021-08-13T19:51:07.237Z</time>
      </trkpt>
      <trkpt lat="43.80976" lon="6.54814">
        <ele>1050</ele>
        <time>2021-08-13T19:51:09.607Z</time>
      </trkpt>
      <trkpt lat="43.80977" lon="6.5483">
        <ele>1049</ele>
        <time>2021-08-13T19:51:10.910Z</time>
      </trkpt>
      <trkpt lat="43.80991" lon="6.54881">
        <ele>1047</ele>
        <time>2021-08-13T19:51:15.523Z</time>
      </trkpt>
      <trkpt lat="43.81008" lon="6.54927">
        <ele>1048</ele>
        <time>2021-08-13T19:51:29.384Z</time>
      </trkpt>
      <trkpt lat="43.81016" lon="6.54961">
        <ele>1050</ele>
        <time>2021-08-13T19:51:44.818Z</time>
      </trkpt>
      <trkpt lat="43.81042" lon="6.55001">
        <ele>1056</ele>
        <time>2021-08-13T19:52:26.832Z</time>
      </trkpt>
      <trkpt lat="43.8107" lon="6.55029">
        <ele>1063</ele>
        <time>2021-08-13T19:53:04.175Z</time>
      </trkpt>
      <trkpt lat="43.81083" lon="6.55035">
        <ele>1067</ele>
        <time>2021-08-13T19:53:18.994Z</time>
      </trkpt>
      <trkpt lat="43.8109" lon="6.55042">
        <ele>1068</ele>
        <time>2021-08-13T19:53:26.437Z</time>
      </trkpt>
      <trkpt lat="43.81093" lon="6.55048">
        <ele>1069</ele>
        <time>2021-08-13T19:53:32.134Z</time>
      </trkpt>
      <trkpt lat="43.81093" lon="6.55059">
        <ele>1069</ele>
        <time>2021-08-13T19:53:34.360Z</time>
      </trkpt>
      <trkpt lat="43.8108" lon="6.55102">
        <ele>1066</ele>
        <time>2021-08-13T19:53:38.144Z</time>
      </trkpt>
      <trkpt lat="43.81081" lon="6.55109">
        <ele>1067</ele>
        <time>2021-08-13T19:53:43.713Z</time>
      </trkpt>
      <trkpt lat="43.81096" lon="6.55135">
        <ele>1071</ele>
        <time>2021-08-13T19:54:09.692Z</time>
      </trkpt>
      <trkpt lat="43.81104" lon="6.55146">
        <ele>1074</ele>
        <time>2021-08-13T19:54:21.880Z</time>
      </trkpt>
      <trkpt lat="43.81106" lon="6.55152">
        <ele>1075</ele>
        <time>2021-08-13T19:54:27.038Z</time>
      </trkpt>
      <trkpt lat="43.81098" lon="6.55188">
        <ele>1075</ele>
        <time>2021-08-13T19:54:34.660Z</time>
      </trkpt>
      <trkpt lat="43.81099" lon="6.55219">
        <ele>1077</ele>
        <time>2021-08-13T19:54:49.448Z</time>
      </trkpt>
      <trkpt lat="43.81101" lon="6.55227">
        <ele>1077</ele>
        <time>2021-08-13T19:54:51.161Z</time>
      </trkpt>
      <trkpt lat="43.81109" lon="6.55248">
        <ele>1081</ele>
        <time>2021-08-13T19:55:09.693Z</time>
      </trkpt>
      <trkpt lat="43.81116" lon="6.55274">
        <ele>1084</ele>
        <time>2021-08-13T19:55:31.351Z</time>
      </trkpt>
      <trkpt lat="43.81111" lon="6.55315">
        <ele>1085</ele>
        <time>2021-08-13T19:55:43.461Z</time>
      </trkpt>
      <trkpt lat="43.81105" lon="6.55339">
        <ele>1084</ele>
        <time>2021-08-13T19:55:45.541Z</time>
      </trkpt>
      <trkpt lat="43.81102" lon="6.55366">
        <ele>1082</ele>
        <time>2021-08-13T19:55:47.758Z</time>
      </trkpt>
      <trkpt lat="43.81099" lon="6.55371">
        <ele>1081</ele>
        <time>2021-08-13T19:55:48.286Z</time>
      </trkpt>
      <trkpt lat="43.81095" lon="6.55371">
        <ele>1080</ele>
        <time>2021-08-13T19:55:48.736Z</time>
      </trkpt>
      <trkpt lat="43.81092" lon="6.5535">
        <ele>1079</ele>
        <time>2021-08-13T19:55:50.352Z</time>
      </trkpt>
      <trkpt lat="43.81079" lon="6.55375">
        <ele>1075</ele>
        <time>2021-08-13T19:55:52.853Z</time>
      </trkpt>
      <trkpt lat="43.8108" lon="6.55392">
        <ele>1074</ele>
        <time>2021-08-13T19:55:54.237Z</time>
      </trkpt>
      <trkpt lat="43.81079" lon="6.55458">
        <ele>1073</ele>
        <time>2021-08-13T19:56:01.746Z</time>
      </trkpt>
      <trkpt lat="43.8108" lon="6.55525">
        <ele>1074</ele>
        <time>2021-08-13T19:56:18.474Z</time>
      </trkpt>
      <trkpt lat="43.81078" lon="6.55554">
        <ele>1075</ele>
        <time>2021-08-13T19:56:28.619Z</time>
      </trkpt>
      <trkpt lat="43.81076" lon="6.5557">
        <ele>1075</ele>
        <time>2021-08-13T19:56:31.904Z</time>
      </trkpt>
      <trkpt lat="43.81063" lon="6.55609">
        <ele>1074</ele>
        <time>2021-08-13T19:56:36.226Z</time>
      </trkpt>
      <trkpt lat="43.81057" lon="6.55631">
        <ele>1074</ele>
        <time>2021-08-13T19:56:40.985Z</time>
      </trkpt>
      <trkpt lat="43.81051" lon="6.55675">
        <ele>1078</ele>
        <time>2021-08-13T19:57:11.655Z</time>
      </trkpt>
      <trkpt lat="43.81044" lon="6.5569">
        <ele>1080</ele>
        <time>2021-08-13T19:57:25.596Z</time>
      </trkpt>
      <trkpt lat="43.81035" lon="6.55696">
        <ele>1080</ele>
        <time>2021-08-13T19:57:28.397Z</time>
      </trkpt>
      <trkpt lat="43.81006" lon="6.55688">
        <ele>1071</ele>
        <time>2021-08-13T19:57:31.723Z</time>
      </trkpt>
      <trkpt lat="43.80969" lon="6.55703">
        <ele>1065</ele>
        <time>2021-08-13T19:57:36.059Z</time>
      </trkpt>
      <trkpt lat="43.80957" lon="6.55713">
        <ele>1064</ele>
        <time>2021-08-13T19:57:37.634Z</time>
      </trkpt>
      <trkpt lat="43.80939" lon="6.55733">
        <ele>1063</ele>
        <time>2021-08-13T19:57:40.522Z</time>
      </trkpt>
      <trkpt lat="43.8093" lon="6.55767">
        <ele>1066</ele>
        <time>2021-08-13T19:58:02.787Z</time>
      </trkpt>
      <trkpt lat="43.80918" lon="6.55787">
        <ele>1065</ele>
        <time>2021-08-13T19:58:04.940Z</time>
      </trkpt>
      <trkpt lat="43.80912" lon="6.55802">
        <ele>1065</ele>
        <time>2021-08-13T19:58:08.410Z</time>
      </trkpt>
      <trkpt lat="43.80899" lon="6.55864">
        <ele>1067</ele>
        <time>2021-08-13T19:58:29.939Z</time>
      </trkpt>
      <trkpt lat="43.80896" lon="6.55917">
        <ele>1070</ele>
        <time>2021-08-13T19:58:53.010Z</time>
      </trkpt>
      <trkpt lat="43.80899" lon="6.55997">
        <ele>1072</ele>
        <time>2021-08-13T19:59:16.739Z</time>
      </trkpt>
      <trkpt lat="43.80894" lon="6.56062">
        <ele>1070</ele>
        <time>2021-08-13T19:59:22.696Z</time>
      </trkpt>
      <trkpt lat="43.8089" lon="6.56073">
        <ele>1070</ele>
        <time>2021-08-13T19:59:25.188Z</time>
      </trkpt>
      <trkpt lat="43.80883" lon="6.56078">
        <ele>1070</ele>
        <time>2021-08-13T19:59:27.396Z</time>
      </trkpt>
      <trkpt lat="43.80869" lon="6.56081">
        <ele>1072</ele>
        <time>2021-08-13T19:59:42.717Z</time>
      </trkpt>
      <trkpt lat="43.80866" lon="6.56084">
        <ele>1073</ele>
        <time>2021-08-13T19:59:46.718Z</time>
      </trkpt>
      <trkpt lat="43.80866" lon="6.56088">
        <ele>1073</ele>
        <time>2021-08-13T19:59:47.528Z</time>
      </trkpt>
      <trkpt lat="43.80866" lon="6.56093">
        <ele>1073</ele>
        <time>2021-08-13T19:59:48.539Z</time>
      </trkpt>
      <trkpt lat="43.8087" lon="6.56098">
        <ele>1072</ele>
        <time>2021-08-13T19:59:49.145Z</time>
      </trkpt>
      <trkpt lat="43.80886" lon="6.56098">
        <ele>1070</ele>
        <time>2021-08-13T19:59:50.945Z</time>
      </trkpt>
      <trkpt lat="43.8091" lon="6.56096">
        <ele>1066</ele>
        <time>2021-08-13T19:59:53.649Z</time>
      </trkpt>
      <trkpt lat="43.80945" lon="6.56089">
        <ele>1066</ele>
        <time>2021-08-13T20:00:03.565Z</time>
      </trkpt>
      <trkpt lat="43.80985" lon="6.56112">
        <ele>1062</ele>
        <time>2021-08-13T20:00:08.436Z</time>
      </trkpt>
      <trkpt lat="43.81015" lon="6.56137">
        <ele>1056</ele>
        <time>2021-08-13T20:00:12.374Z</time>
      </trkpt>
      <trkpt lat="43.81042" lon="6.56155">
        <ele>1051</ele>
        <time>2021-08-13T20:00:15.744Z</time>
      </trkpt>
      <trkpt lat="43.8105" lon="6.56156">
        <ele>1051</ele>
        <time>2021-08-13T20:00:17.996Z</time>
      </trkpt>
      <trkpt lat="43.81071" lon="6.56151">
        <ele>1053</ele>
        <time>2021-08-13T20:00:32.656Z</time>
      </trkpt>
      <trkpt lat="43.81078" lon="6.56153">
        <ele>1053</ele>
        <time>2021-08-13T20:00:34.660Z</time>
      </trkpt>
      <trkpt lat="43.81093" lon="6.56162">
        <ele>1048</ele>
        <time>2021-08-13T20:00:36.499Z</time>
      </trkpt>
      <trkpt lat="43.81101" lon="6.56162">
        <ele>1048</ele>
        <time>2021-08-13T20:00:38.742Z</time>
      </trkpt>
      <trkpt lat="43.81109" lon="6.56157">
        <ele>1048</ele>
        <time>2021-08-13T20:00:41.202Z</time>
      </trkpt>
      <trkpt lat="43.81133" lon="6.56132">
        <ele>1052</ele>
        <time>2021-08-13T20:01:13.576Z</time>
      </trkpt>
      <trkpt lat="43.81153" lon="6.5612">
        <ele>1052</ele>
        <time>2021-08-13T20:01:19.687Z</time>
      </trkpt>
      <trkpt lat="43.81165" lon="6.56116">
        <ele>1051</ele>
        <time>2021-08-13T20:01:21.075Z</time>
      </trkpt>
      <trkpt lat="43.81174" lon="6.56117">
        <ele>1049</ele>
        <time>2021-08-13T20:01:22.091Z</time>
      </trkpt>
      <trkpt lat="43.81179" lon="6.56122">
        <ele>1047</ele>
        <time>2021-08-13T20:01:22.784Z</time>
      </trkpt>
      <trkpt lat="43.81181" lon="6.56129">
        <ele>1045</ele>
        <time>2021-08-13T20:01:23.395Z</time>
      </trkpt>
      <trkpt lat="43.81178" lon="6.56135">
        <ele>1044</ele>
        <time>2021-08-13T20:01:23.988Z</time>
      </trkpt>
      <trkpt lat="43.81159" lon="6.56149">
        <ele>1044</ele>
        <time>2021-08-13T20:01:30.021Z</time>
      </trkpt>
      <trkpt lat="43.81148" lon="6.56165">
        <ele>1041</ele>
        <time>2021-08-13T20:01:31.815Z</time>
      </trkpt>
      <trkpt lat="43.81139" lon="6.56172">
        <ele>1040</ele>
        <time>2021-08-13T20:01:32.976Z</time>
      </trkpt>
      <trkpt lat="43.81136" lon="6.56177">
        <ele>1039</ele>
        <time>2021-08-13T20:01:33.504Z</time>
      </trkpt>
      <trkpt lat="43.81139" lon="6.56186">
        <ele>1036</ele>
        <time>2021-08-13T20:01:34.309Z</time>
      </trkpt>
      <trkpt lat="43.81144" lon="6.56184">
        <ele>1036</ele>
        <time>2021-08-13T20:01:35.768Z</time>
      </trkpt>
      <trkpt lat="43.81159" lon="6.56174">
        <ele>1038</ele>
        <time>2021-08-13T20:01:50.871Z</time>
      </trkpt>
      <trkpt lat="43.81169" lon="6.5617">
        <ele>1038</ele>
        <time>2021-08-13T20:01:53.789Z</time>
      </trkpt>
      <trkpt lat="43.81174" lon="6.5617">
        <ele>1036</ele>
        <time>2021-08-13T20:01:54.351Z</time>
      </trkpt>
      <trkpt lat="43.81177" lon="6.56172">
        <ele>1035</ele>
        <time>2021-08-13T20:01:54.726Z</time>
      </trkpt>
      <trkpt lat="43.81178" lon="6.56176">
        <ele>1034</ele>
        <time>2021-08-13T20:01:55.070Z</time>
      </trkpt>
      <trkpt lat="43.81177" lon="6.56183">
        <ele>1032</ele>
        <time>2021-08-13T20:01:55.649Z</time>
      </trkpt>
      <trkpt lat="43.81152" lon="6.56204">
        <ele>1030</ele>
        <time>2021-08-13T20:01:58.937Z</time>
      </trkpt>
      <trkpt lat="43.81118" lon="6.56213">
        <ele>1030</ele>
        <time>2021-08-13T20:02:08.643Z</time>
      </trkpt>
      <trkpt lat="43.81112" lon="6.56216">
        <ele>1029</ele>
        <time>2021-08-13T20:02:09.360Z</time>
      </trkpt>
      <trkpt lat="43.8111" lon="6.5622">
        <ele>1028</ele>
        <time>2021-08-13T20:02:09.755Z</time>
      </trkpt>
      <trkpt lat="43.81111" lon="6.56226">
        <ele>1026</ele>
        <time>2021-08-13T20:02:10.255Z</time>
      </trkpt>
      <trkpt lat="43.81114" lon="6.56227">
        <ele>1026</ele>
        <time>2021-08-13T20:02:11.120Z</time>
      </trkpt>
      <trkpt lat="43.81129" lon="6.56219">
        <ele>1027</ele>
        <time>2021-08-13T20:02:19.686Z</time>
      </trkpt>
      <trkpt lat="43.81167" lon="6.56252">
        <ele>1016</ele>
        <time>2021-08-13T20:02:24.730Z</time>
      </trkpt>
      <trkpt lat="43.81181" lon="6.56271">
        <ele>1010</ele>
        <time>2021-08-13T20:02:26.935Z</time>
      </trkpt>
      <trkpt lat="43.81187" lon="6.56277">
        <ele>1008</ele>
        <time>2021-08-13T20:02:27.767Z</time>
      </trkpt>
      <trkpt lat="43.81192" lon="6.56277">
        <ele>1007</ele>
        <time>2021-08-13T20:02:28.329Z</time>
      </trkpt>
      <trkpt lat="43.81196" lon="6.56273">
        <ele>1007</ele>
        <time>2021-08-13T20:02:29.712Z</time>
      </trkpt>
      <trkpt lat="43.81205" lon="6.56252">
        <ele>1010</ele>
        <time>2021-08-13T20:02:48.774Z</time>
      </trkpt>
      <trkpt lat="43.8121" lon="6.56245">
        <ele>1010</ele>
        <time>2021-08-13T20:02:50.766Z</time>
      </trkpt>
      <trkpt lat="43.81216" lon="6.5624">
        <ele>1011</ele>
        <time>2021-08-13T20:02:58.338Z</time>
      </trkpt>
      <trkpt lat="43.81225" lon="6.56238">
        <ele>1010</ele>
        <time>2021-08-13T20:02:59.364Z</time>
      </trkpt>
      <trkpt lat="43.81253" lon="6.56243">
        <ele>1004</ele>
        <time>2021-08-13T20:03:02.539Z</time>
      </trkpt>
      <trkpt lat="43.81262" lon="6.56241">
        <ele>1003</ele>
        <time>2021-08-13T20:03:03.565Z</time>
      </trkpt>
      <trkpt lat="43.81268" lon="6.56236">
        <ele>1003</ele>
        <time>2021-08-13T20:03:05.528Z</time>
      </trkpt>
      <trkpt lat="43.81269" lon="6.5623">
        <ele>1004</ele>
        <time>2021-08-13T20:03:10.333Z</time>
      </trkpt>
      <trkpt lat="43.81266" lon="6.56217">
        <ele>1008</ele>
        <time>2021-08-13T20:03:20.985Z</time>
      </trkpt>
      <trkpt lat="43.81266" lon="6.56207">
        <ele>1010</ele>
        <time>2021-08-13T20:03:28.789Z</time>
      </trkpt>
      <trkpt lat="43.81268" lon="6.562">
        <ele>1011</ele>
        <time>2021-08-13T20:03:34.665Z</time>
      </trkpt>
      <trkpt lat="43.81273" lon="6.56196">
        <ele>1012</ele>
        <time>2021-08-13T20:03:40.908Z</time>
      </trkpt>
      <trkpt lat="43.8128" lon="6.56195">
        <ele>1011</ele>
        <time>2021-08-13T20:03:41.700Z</time>
      </trkpt>
      <trkpt lat="43.8131" lon="6.56214">
        <ele>1003</ele>
        <time>2021-08-13T20:03:45.410Z</time>
      </trkpt>
      <trkpt lat="43.81344" lon="6.56208">
        <ele>1001</ele>
        <time>2021-08-13T20:03:49.180Z</time>
      </trkpt>
      <trkpt lat="43.81362" lon="6.56209">
        <ele>999</ele>
        <time>2021-08-13T20:03:51.206Z</time>
      </trkpt>
      <trkpt lat="43.81378" lon="6.56215">
        <ele>995</ele>
        <time>2021-08-13T20:03:53.071Z</time>
      </trkpt>
      <trkpt lat="43.81397" lon="6.56225">
        <ele>991</ele>
        <time>2021-08-13T20:03:55.357Z</time>
      </trkpt>
      <trkpt lat="43.81467" lon="6.56232">
        <ele>987</ele>
        <time>2021-08-13T20:04:03.161Z</time>
      </trkpt>
      <trkpt lat="43.81477" lon="6.5623">
        <ele>987</ele>
        <time>2021-08-13T20:04:05.994Z</time>
      </trkpt>
      <trkpt lat="43.81485" lon="6.56224">
        <ele>988</ele>
        <time>2021-08-13T20:04:13.337Z</time>
      </trkpt>
      <trkpt lat="43.81493" lon="6.56215">
        <ele>990</ele>
        <time>2021-08-13T20:04:24.481Z</time>
      </trkpt>
      <trkpt lat="43.81502" lon="6.5621">
        <ele>991</ele>
        <time>2021-08-13T20:04:31.774Z</time>
      </trkpt>
      <trkpt lat="43.81506" lon="6.56214">
        <ele>990</ele>
        <time>2021-08-13T20:04:32.329Z</time>
      </trkpt>
      <trkpt lat="43.81508" lon="6.56224">
        <ele>989</ele>
        <time>2021-08-13T20:04:33.171Z</time>
      </trkpt>
      <trkpt lat="43.81505" lon="6.56252">
        <ele>983</ele>
        <time>2021-08-13T20:04:35.468Z</time>
      </trkpt>
      <trkpt lat="43.81506" lon="6.56268">
        <ele>980</ele>
        <time>2021-08-13T20:04:36.772Z</time>
      </trkpt>
      <trkpt lat="43.81512" lon="6.56278">
        <ele>978</ele>
        <time>2021-08-13T20:04:37.828Z</time>
      </trkpt>
      <trkpt lat="43.81518" lon="6.56283">
        <ele>977</ele>
        <time>2021-08-13T20:04:38.615Z</time>
      </trkpt>
      <trkpt lat="43.81547" lon="6.56285">
        <ele>979</ele>
        <time>2021-08-13T20:04:54.860Z</time>
      </trkpt>
      <trkpt lat="43.8155" lon="6.56289">
        <ele>978</ele>
        <time>2021-08-13T20:04:55.328Z</time>
      </trkpt>
      <trkpt lat="43.81551" lon="6.56294">
        <ele>977</ele>
        <time>2021-08-13T20:04:55.750Z</time>
      </trkpt>
      <trkpt lat="43.81548" lon="6.56299">
        <ele>975</ele>
        <time>2021-08-13T20:04:56.277Z</time>
      </trkpt>
      <trkpt lat="43.81542" lon="6.56302">
        <ele>974</ele>
        <time>2021-08-13T20:04:56.995Z</time>
      </trkpt>
      <trkpt lat="43.81534" lon="6.56308">
        <ele>972</ele>
        <time>2021-08-13T20:04:58.018Z</time>
      </trkpt>
      <trkpt lat="43.81516" lon="6.56328">
        <ele>967</ele>
        <time>2021-08-13T20:05:00.613Z</time>
      </trkpt>
      <trkpt lat="43.81505" lon="6.56332">
        <ele>965</ele>
        <time>2021-08-13T20:05:01.892Z</time>
      </trkpt>
      <trkpt lat="43.81498" lon="6.56328">
        <ele>966</ele>
        <time>2021-08-13T20:05:09.923Z</time>
      </trkpt>
      <trkpt lat="43.81494" lon="6.56322">
        <ele>968</ele>
        <time>2021-08-13T20:05:16.298Z</time>
      </trkpt>
      <trkpt lat="43.81488" lon="6.56307">
        <ele>971</ele>
        <time>2021-08-13T20:05:29.682Z</time>
      </trkpt>
      <trkpt lat="43.81485" lon="6.56305">
        <ele>972</ele>
        <time>2021-08-13T20:05:33.282Z</time>
      </trkpt>
      <trkpt lat="43.8148" lon="6.56308">
        <ele>971</ele>
        <time>2021-08-13T20:05:33.895Z</time>
      </trkpt>
      <trkpt lat="43.81475" lon="6.56318">
        <ele>969</ele>
        <time>2021-08-13T20:05:34.882Z</time>
      </trkpt>
      <trkpt lat="43.81453" lon="6.56333">
        <ele>967</ele>
        <time>2021-08-13T20:05:37.640Z</time>
      </trkpt>
      <trkpt lat="43.81453" lon="6.56341">
        <ele>967</ele>
        <time>2021-08-13T20:05:39.259Z</time>
      </trkpt>
      <trkpt lat="43.81462" lon="6.56348">
        <ele>967</ele>
        <time>2021-08-13T20:05:42.153Z</time>
      </trkpt>
      <trkpt lat="43.81484" lon="6.5635">
        <ele>965</ele>
        <time>2021-08-13T20:05:44.633Z</time>
      </trkpt>
      <trkpt lat="43.81494" lon="6.56354">
        <ele>964</ele>
        <time>2021-08-13T20:05:45.804Z</time>
      </trkpt>
      <trkpt lat="43.81518" lon="6.56371">
        <ele>963</ele>
        <time>2021-08-13T20:05:49.383Z</time>
      </trkpt>
      <trkpt lat="43.81528" lon="6.56382">
        <ele>961</ele>
        <time>2021-08-13T20:05:50.819Z</time>
      </trkpt>
      <trkpt lat="43.81546" lon="6.56397">
        <ele>959</ele>
        <time>2021-08-13T20:05:53.182Z</time>
      </trkpt>
      <trkpt lat="43.8155" lon="6.56401">
        <ele>958</ele>
        <time>2021-08-13T20:05:53.737Z</time>
      </trkpt>
      <trkpt lat="43.81554" lon="6.56406">
        <ele>957</ele>
        <time>2021-08-13T20:05:54.343Z</time>
      </trkpt>
      <trkpt lat="43.81556" lon="6.56429">
        <ele>957</ele>
        <time>2021-08-13T20:05:59.030Z</time>
      </trkpt>
      <trkpt lat="43.81558" lon="6.56433">
        <ele>957</ele>
        <time>2021-08-13T20:06:00.014Z</time>
      </trkpt>
      <trkpt lat="43.81574" lon="6.56439">
        <ele>956</ele>
        <time>2021-08-13T20:06:01.809Z</time>
      </trkpt>
      <trkpt lat="43.81611" lon="6.56445">
        <ele>955</ele>
        <time>2021-08-13T20:06:07.307Z</time>
      </trkpt>
      <trkpt lat="43.81623" lon="6.56444">
        <ele>955</ele>
        <time>2021-08-13T20:06:10.678Z</time>
      </trkpt>
      <trkpt lat="43.81651" lon="6.56425">
        <ele>952</ele>
        <time>2021-08-13T20:06:14.185Z</time>
      </trkpt>
      <trkpt lat="43.81677" lon="6.56415">
        <ele>952</ele>
        <time>2021-08-13T20:06:21.750Z</time>
      </trkpt>
      <trkpt lat="43.81728" lon="6.56384">
        <ele>954</ele>
        <time>2021-08-13T20:06:45.019Z</time>
      </trkpt>
      <trkpt lat="43.81747" lon="6.56375">
        <ele>953</ele>
        <time>2021-08-13T20:06:47.392Z</time>
      </trkpt>
      <trkpt lat="43.81799" lon="6.56362">
        <ele>947</ele>
        <time>2021-08-13T20:06:53.335Z</time>
      </trkpt>
      <trkpt lat="43.8182" lon="6.56365">
        <ele>945</ele>
        <time>2021-08-13T20:06:55.710Z</time>
      </trkpt>
      <trkpt lat="43.8184" lon="6.56364">
        <ele>943</ele>
        <time>2021-08-13T20:06:57.961Z</time>
      </trkpt>
      <trkpt lat="43.81873" lon="6.56358">
        <ele>939</ele>
        <time>2021-08-13T20:07:01.705Z</time>
      </trkpt>
      <trkpt lat="43.81887" lon="6.56359">
        <ele>938</ele>
        <time>2021-08-13T20:07:03.282Z</time>
      </trkpt>
      <trkpt lat="43.81901" lon="6.56367">
        <ele>937</ele>
        <time>2021-08-13T20:07:04.850Z</time>
      </trkpt>
      <trkpt lat="43.81914" lon="6.56383">
        <ele>937</ele>
        <time>2021-08-13T20:07:09.725Z</time>
      </trkpt>
      <trkpt lat="43.8192" lon="6.56405">
        <ele>937</ele>
        <time>2021-08-13T20:07:14.483Z</time>
      </trkpt>
      <trkpt lat="43.81934" lon="6.56441">
        <ele>938</ele>
        <time>2021-08-13T20:07:26.481Z</time>
      </trkpt>
      <trkpt lat="43.81933" lon="6.56459">
        <ele>939</ele>
        <time>2021-08-13T20:07:34.225Z</time>
      </trkpt>
      <trkpt lat="43.81945" lon="6.56487">
        <ele>939</ele>
        <time>2021-08-13T20:07:40.814Z</time>
      </trkpt>
      <trkpt lat="43.81964" lon="6.56496">
        <ele>937</ele>
        <time>2021-08-13T20:07:43.073Z</time>
      </trkpt>
      <trkpt lat="43.82035" lon="6.56501">
        <ele>928</ele>
        <time>2021-08-13T20:07:51.069Z</time>
      </trkpt>
      <trkpt lat="43.82044" lon="6.56499">
        <ele>927</ele>
        <time>2021-08-13T20:07:52.095Z</time>
      </trkpt>
      <trkpt lat="43.82066" lon="6.56484">
        <ele>925</ele>
        <time>2021-08-13T20:07:54.853Z</time>
      </trkpt>
      <trkpt lat="43.82077" lon="6.56479">
        <ele>924</ele>
        <time>2021-08-13T20:07:56.155Z</time>
      </trkpt>
      <trkpt lat="43.82082" lon="6.56482">
        <ele>923</ele>
        <time>2021-08-13T20:07:56.768Z</time>
      </trkpt>
      <trkpt lat="43.82086" lon="6.56488">
        <ele>923</ele>
        <time>2021-08-13T20:07:58.420Z</time>
      </trkpt>
      <trkpt lat="43.8209" lon="6.56545">
        <ele>926</ele>
        <time>2021-08-13T20:08:22.200Z</time>
      </trkpt>
      <trkpt lat="43.82096" lon="6.5656">
        <ele>927</ele>
        <time>2021-08-13T20:08:29.802Z</time>
      </trkpt>
      <trkpt lat="43.82103" lon="6.56568">
        <ele>928</ele>
        <time>2021-08-13T20:08:37.149Z</time>
      </trkpt>
      <trkpt lat="43.82122" lon="6.56569">
        <ele>930</ele>
        <time>2021-08-13T20:08:51.750Z</time>
      </trkpt>
      <trkpt lat="43.82126" lon="6.56567">
        <ele>930</ele>
        <time>2021-08-13T20:08:52.943Z</time>
      </trkpt>
      <trkpt lat="43.82129" lon="6.56556">
        <ele>930</ele>
        <time>2021-08-13T20:08:55.322Z</time>
      </trkpt>
      <trkpt lat="43.82129" lon="6.56547">
        <ele>929</ele>
        <time>2021-08-13T20:08:56.052Z</time>
      </trkpt>
      <trkpt lat="43.82131" lon="6.56531">
        <ele>928</ele>
        <time>2021-08-13T20:08:57.370Z</time>
      </trkpt>
      <trkpt lat="43.82135" lon="6.56521">
        <ele>928</ele>
        <time>2021-08-13T20:08:59.683Z</time>
      </trkpt>
      <trkpt lat="43.82173" lon="6.56462">
        <ele>924</ele>
        <time>2021-08-13T20:09:06.102Z</time>
      </trkpt>
      <trkpt lat="43.82184" lon="6.56453">
        <ele>924</ele>
        <time>2021-08-13T20:09:09.683Z</time>
      </trkpt>
      <trkpt lat="43.82197" lon="6.56448">
        <ele>926</ele>
        <time>2021-08-13T20:09:24.274Z</time>
      </trkpt>
      <trkpt lat="43.82215" lon="6.56445">
        <ele>928</ele>
        <time>2021-08-13T20:09:38.971Z</time>
      </trkpt>
      <trkpt lat="43.82228" lon="6.56439">
        <ele>930</ele>
        <time>2021-08-13T20:09:53.789Z</time>
      </trkpt>
      <trkpt lat="43.82239" lon="6.5643">
        <ele>930</ele>
        <time>2021-08-13T20:09:57.371Z</time>
      </trkpt>
      <trkpt lat="43.82264" lon="6.56394">
        <ele>930</ele>
        <time>2021-08-13T20:10:07.479Z</time>
      </trkpt>
      <trkpt lat="43.82275" lon="6.56371">
        <ele>931</ele>
        <time>2021-08-13T20:10:17.254Z</time>
      </trkpt>
      <trkpt lat="43.82307" lon="6.56251">
        <ele>939</ele>
        <time>2021-08-13T20:11:16.820Z</time>
      </trkpt>
      <trkpt lat="43.82315" lon="6.56238">
        <ele>940</ele>
        <time>2021-08-13T20:11:24.411Z</time>
      </trkpt>
      <trkpt lat="43.82365" lon="6.56205">
        <ele>938</ele>
        <time>2021-08-13T20:11:31.838Z</time>
      </trkpt>
      <trkpt lat="43.82402" lon="6.56177">
        <ele>931</ele>
        <time>2021-08-13T20:11:36.580Z</time>
      </trkpt>
      <trkpt lat="43.82428" lon="6.56161">
        <ele>927</ele>
        <time>2021-08-13T20:11:39.780Z</time>
      </trkpt>
      <trkpt lat="43.82434" lon="6.56159">
        <ele>926</ele>
        <time>2021-08-13T20:11:40.474Z</time>
      </trkpt>
      <trkpt lat="43.8244" lon="6.56163">
        <ele>925</ele>
        <time>2021-08-13T20:11:41.223Z</time>
      </trkpt>
      <trkpt lat="43.82441" lon="6.5617">
        <ele>925</ele>
        <time>2021-08-13T20:11:42.666Z</time>
      </trkpt>
      <trkpt lat="43.8244" lon="6.56191">
        <ele>926</ele>
        <time>2021-08-13T20:11:50.974Z</time>
      </trkpt>
      <trkpt lat="43.8243" lon="6.56247">
        <ele>930</ele>
        <time>2021-08-13T20:12:20.212Z</time>
      </trkpt>
      <trkpt lat="43.82423" lon="6.56275">
        <ele>929</ele>
        <time>2021-08-13T20:12:22.806Z</time>
      </trkpt>
      <trkpt lat="43.82423" lon="6.56287">
        <ele>929</ele>
        <time>2021-08-13T20:12:25.234Z</time>
      </trkpt>
      <trkpt lat="43.82425" lon="6.56293">
        <ele>928</ele>
        <time>2021-08-13T20:12:25.770Z</time>
      </trkpt>
      <trkpt lat="43.82433" lon="6.56299">
        <ele>928</ele>
        <time>2021-08-13T20:12:28.320Z</time>
      </trkpt>
      <trkpt lat="43.82438" lon="6.56299">
        <ele>928</ele>
        <time>2021-08-13T20:12:29.722Z</time>
      </trkpt>
      <trkpt lat="43.82445" lon="6.56295">
        <ele>928</ele>
        <time>2021-08-13T20:12:31.845Z</time>
      </trkpt>
      <trkpt lat="43.82461" lon="6.56236">
        <ele>927</ele>
        <time>2021-08-13T20:12:38.931Z</time>
      </trkpt>
      <trkpt lat="43.82476" lon="6.56191">
        <ele>922</ele>
        <time>2021-08-13T20:12:42.953Z</time>
      </trkpt>
      <trkpt lat="43.82513" lon="6.56116">
        <ele>914</ele>
        <time>2021-08-13T20:12:50.327Z</time>
      </trkpt>
      <trkpt lat="43.82536" lon="6.56104">
        <ele>914</ele>
        <time>2021-08-13T20:12:57.218Z</time>
      </trkpt>
      <trkpt lat="43.82538" lon="6.561">
        <ele>914</ele>
        <time>2021-08-13T20:12:58.202Z</time>
      </trkpt>
      <trkpt lat="43.82539" lon="6.56079">
        <ele>914</ele>
        <time>2021-08-13T20:13:02.459Z</time>
      </trkpt>
      <trkpt lat="43.82534" lon="6.56047">
        <ele>914</ele>
        <time>2021-08-13T20:13:09.083Z</time>
      </trkpt>
      <trkpt lat="43.8254" lon="6.56029">
        <ele>915</ele>
        <time>2021-08-13T20:13:17.148Z</time>
      </trkpt>
      <trkpt lat="43.82602" lon="6.55932">
        <ele>915</ele>
        <time>2021-08-13T20:13:43.363Z</time>
      </trkpt>
      <trkpt lat="43.82629" lon="6.55881">
        <ele>914</ele>
        <time>2021-08-13T20:13:50.480Z</time>
      </trkpt>
      <trkpt lat="43.82644" lon="6.55865">
        <ele>913</ele>
        <time>2021-08-13T20:13:52.659Z</time>
      </trkpt>
      <trkpt lat="43.82657" lon="6.55858">
        <ele>913</ele>
        <time>2021-08-13T20:13:56.569Z</time>
      </trkpt>
      <trkpt lat="43.8268" lon="6.55852">
        <ele>913</ele>
        <time>2021-08-13T20:14:03.131Z</time>
      </trkpt>
      <trkpt lat="43.82695" lon="6.55854">
        <ele>913</ele>
        <time>2021-08-13T20:14:07.356Z</time>
      </trkpt>
      <trkpt lat="43.82725" lon="6.55868">
        <ele>914</ele>
        <time>2021-08-13T20:14:19.846Z</time>
      </trkpt>
      <trkpt lat="43.82738" lon="6.55879">
        <ele>915</ele>
        <time>2021-08-13T20:14:28.167Z</time>
      </trkpt>
      <trkpt lat="43.8275" lon="6.55896">
        <ele>916</ele>
        <time>2021-08-13T20:14:37.062Z</time>
      </trkpt>
      <trkpt lat="43.82754" lon="6.5591">
        <ele>918</ele>
        <time>2021-08-13T20:14:48.810Z</time>
      </trkpt>
      <trkpt lat="43.82756" lon="6.55923">
        <ele>919</ele>
        <time>2021-08-13T20:14:56.107Z</time>
      </trkpt>
      <trkpt lat="43.82754" lon="6.55957">
        <ele>922</ele>
        <time>2021-08-13T20:15:18.920Z</time>
      </trkpt>
      <trkpt lat="43.82756" lon="6.55966">
        <ele>923</ele>
        <time>2021-08-13T20:15:26.267Z</time>
      </trkpt>
      <trkpt lat="43.82761" lon="6.55973">
        <ele>923</ele>
        <time>2021-08-13T20:15:28.260Z</time>
      </trkpt>
      <trkpt lat="43.82774" lon="6.55977">
        <ele>923</ele>
        <time>2021-08-13T20:15:31.993Z</time>
      </trkpt>
      <trkpt lat="43.82794" lon="6.55974">
        <ele>922</ele>
        <time>2021-08-13T20:15:34.372Z</time>
      </trkpt>
      <trkpt lat="43.82833" lon="6.55962">
        <ele>919</ele>
        <time>2021-08-13T20:15:38.866Z</time>
      </trkpt>
      <trkpt lat="43.82867" lon="6.55948">
        <ele>917</ele>
        <time>2021-08-13T20:15:42.830Z</time>
      </trkpt>
      <trkpt lat="43.8289" lon="6.55944">
        <ele>917</ele>
        <time>2021-08-13T20:15:49.329Z</time>
      </trkpt>
      <trkpt lat="43.82909" lon="6.55949">
        <ele>918</ele>
        <time>2021-08-13T20:15:58.918Z</time>
      </trkpt>
      <trkpt lat="43.82941" lon="6.55988">
        <ele>924</ele>
        <time>2021-08-13T20:16:45.000Z</time>
      </trkpt>
      <trkpt lat="43.8295" lon="6.55995">
        <ele>925</ele>
        <time>2021-08-13T20:16:52.304Z</time>
      </trkpt>
      <trkpt lat="43.82957" lon="6.55992">
        <ele>924</ele>
        <time>2021-08-13T20:16:53.128Z</time>
      </trkpt>
      <trkpt lat="43.82967" lon="6.55985">
        <ele>924</ele>
        <time>2021-08-13T20:16:56.269Z</time>
      </trkpt>
      <trkpt lat="43.82984" lon="6.55976">
        <ele>924</ele>
        <time>2021-08-13T20:17:01.372Z</time>
      </trkpt>
      <trkpt lat="43.83002" lon="6.55971">
        <ele>924</ele>
        <time>2021-08-13T20:17:06.519Z</time>
      </trkpt>
      <trkpt lat="43.82999" lon="6.55953">
        <ele>924</ele>
        <time>2021-08-13T20:17:10.256Z</time>
      </trkpt>
      <trkpt lat="43.83001" lon="6.55905">
        <ele>924</ele>
        <time>2021-08-13T20:17:19.981Z</time>
      </trkpt>
      <trkpt lat="43.83007" lon="6.5585">
        <ele>926</ele>
        <time>2021-08-13T20:17:39.634Z</time>
      </trkpt>
      <trkpt lat="43.83007" lon="6.55843">
        <ele>925</ele>
        <time>2021-08-13T20:17:40.202Z</time>
      </trkpt>
      <trkpt lat="43.83013" lon="6.55813">
        <ele>927</ele>
        <time>2021-08-13T20:17:54.999Z</time>
      </trkpt>
      <trkpt lat="43.83014" lon="6.558">
        <ele>927</ele>
        <time>2021-08-13T20:17:57.643Z</time>
      </trkpt>
      <trkpt lat="43.83015" lon="6.558">
        <ele>927</ele>
        <time>2021-08-13T20:17:57.924Z</time>
      </trkpt>
      <trkpt lat="43.83024" lon="6.55801">
        <ele>929</ele>
        <time>2021-08-13T20:18:07.688Z</time>
      </trkpt>
      <trkpt lat="43.8303" lon="6.55803">
        <ele>930</ele>
        <time>2021-08-13T20:18:14.362Z</time>
      </trkpt>
      <trkpt lat="43.83043" lon="6.55806">
        <ele>932</ele>
        <time>2021-08-13T20:18:28.615Z</time>
      </trkpt>
      <trkpt lat="43.83046" lon="6.55787">
        <ele>932</ele>
        <time>2021-08-13T20:18:32.549Z</time>
      </trkpt>
      <trkpt lat="43.83051" lon="6.55714">
        <ele>930</ele>
        <time>2021-08-13T20:18:39.526Z</time>
      </trkpt>
      <trkpt lat="43.83059" lon="6.55663">
        <ele>928</ele>
        <time>2021-08-13T20:18:43.850Z</time>
      </trkpt>
      <trkpt lat="43.83114" lon="6.55463">
        <ele>924</ele>
        <time>2021-08-13T20:19:06.875Z</time>
      </trkpt>
      <trkpt lat="43.83126" lon="6.55404">
        <ele>922</ele>
        <time>2021-08-13T20:19:12.316Z</time>
      </trkpt>
      <trkpt lat="43.83131" lon="6.5536">
        <ele>922</ele>
        <time>2021-08-13T20:19:21.325Z</time>
      </trkpt>
      <trkpt lat="43.83131" lon="6.55336">
        <ele>922</ele>
        <time>2021-08-13T20:19:26.180Z</time>
      </trkpt>
      <trkpt lat="43.8312" lon="6.55204">
        <ele>915</ele>
        <time>2021-08-13T20:19:36.962Z</time>
      </trkpt>
      <trkpt lat="43.8312" lon="6.5519">
        <ele>913</ele>
        <time>2021-08-13T20:19:38.098Z</time>
      </trkpt>
      <trkpt lat="43.83124" lon="6.55174">
        <ele>913</ele>
        <time>2021-08-13T20:19:41.523Z</time>
      </trkpt>
      <trkpt lat="43.83129" lon="6.55163">
        <ele>912</ele>
        <time>2021-08-13T20:19:42.578Z</time>
      </trkpt>
      <trkpt lat="43.83167" lon="6.55104">
        <ele>904</ele>
        <time>2021-08-13T20:19:48.996Z</time>
      </trkpt>
      <trkpt lat="43.8318" lon="6.55089">
        <ele>903</ele>
        <time>2021-08-13T20:19:50.845Z</time>
      </trkpt>
      <trkpt lat="43.83274" lon="6.55017">
        <ele>907</ele>
        <time>2021-08-13T20:20:36.550Z</time>
      </trkpt>
      <trkpt lat="43.83285" lon="6.55007">
        <ele>907</ele>
        <time>2021-08-13T20:20:40.238Z</time>
      </trkpt>
      <trkpt lat="43.83316" lon="6.54965">
        <ele>902</ele>
        <time>2021-08-13T20:20:45.114Z</time>
      </trkpt>
      <trkpt lat="43.83327" lon="6.54951">
        <ele>901</ele>
        <time>2021-08-13T20:20:46.794Z</time>
      </trkpt>
      <trkpt lat="43.83364" lon="6.54916">
        <ele>897</ele>
        <time>2021-08-13T20:20:51.832Z</time>
      </trkpt>
      <trkpt lat="43.83383" lon="6.54904">
        <ele>898</ele>
        <time>2021-08-13T20:21:01.929Z</time>
      </trkpt>
      <trkpt lat="43.83414" lon="6.54898">
        <ele>902</ele>
        <time>2021-08-13T20:21:33.229Z</time>
      </trkpt>
      <trkpt lat="43.83422" lon="6.54894">
        <ele>903</ele>
        <time>2021-08-13T20:21:40.712Z</time>
      </trkpt>
      <trkpt lat="43.8343" lon="6.54887">
        <ele>904</ele>
        <time>2021-08-13T20:21:48.016Z</time>
      </trkpt>
      <trkpt lat="43.83492" lon="6.5477">
        <ele>886</ele>
        <time>2021-08-13T20:21:59.796Z</time>
      </trkpt>
      <trkpt lat="43.83504" lon="6.54757">
        <ele>884</ele>
        <time>2021-08-13T20:22:01.509Z</time>
      </trkpt>
      <trkpt lat="43.83524" lon="6.54739">
        <ele>881</ele>
        <time>2021-08-13T20:22:04.191Z</time>
      </trkpt>
      <trkpt lat="43.83541" lon="6.5473">
        <ele>880</ele>
        <time>2021-08-13T20:22:06.249Z</time>
      </trkpt>
      <trkpt lat="43.83568" lon="6.54727">
        <ele>882</ele>
        <time>2021-08-13T20:22:21.987Z</time>
      </trkpt>
      <trkpt lat="43.83607" lon="6.54729">
        <ele>890</ele>
        <time>2021-08-13T20:23:04.194Z</time>
      </trkpt>
      <trkpt lat="43.83616" lon="6.54727">
        <ele>891</ele>
        <time>2021-08-13T20:23:11.535Z</time>
      </trkpt>
      <trkpt lat="43.83622" lon="6.5472">
        <ele>889</ele>
        <time>2021-08-13T20:23:12.417Z</time>
      </trkpt>
      <trkpt lat="43.83627" lon="6.54709">
        <ele>886</ele>
        <time>2021-08-13T20:23:13.472Z</time>
      </trkpt>
      <trkpt lat="43.83634" lon="6.54673">
        <ele>875</ele>
        <time>2021-08-13T20:23:16.497Z</time>
      </trkpt>
      <trkpt lat="43.83639" lon="6.54663">
        <ele>872</ele>
        <time>2021-08-13T20:23:17.484Z</time>
      </trkpt>
      <trkpt lat="43.83655" lon="6.54647">
        <ele>871</ele>
        <time>2021-08-13T20:23:19.797Z</time>
      </trkpt>
      <trkpt lat="43.83664" lon="6.54641">
        <ele>870</ele>
        <time>2021-08-13T20:23:20.921Z</time>
      </trkpt>
      <trkpt lat="43.83674" lon="6.54638">
        <ele>871</ele>
        <time>2021-08-13T20:23:28.220Z</time>
      </trkpt>
      <trkpt lat="43.83729" lon="6.54636">
        <ele>876</ele>
        <time>2021-08-13T20:24:05.062Z</time>
      </trkpt>
      <trkpt lat="43.83749" lon="6.54631">
        <ele>876</ele>
        <time>2021-08-13T20:24:10.760Z</time>
      </trkpt>
      <trkpt lat="43.83786" lon="6.54605">
        <ele>871</ele>
        <time>2021-08-13T20:24:15.426Z</time>
      </trkpt>
      <trkpt lat="43.83837" lon="6.54564">
        <ele>863</ele>
        <time>2021-08-13T20:24:22.058Z</time>
      </trkpt>
      <trkpt lat="43.83873" lon="6.54544">
        <ele>863</ele>
        <time>2021-08-13T20:24:32.932Z</time>
      </trkpt>
      <trkpt lat="43.83912" lon="6.54515">
        <ele>857</ele>
        <time>2021-08-13T20:24:37.910Z</time>
      </trkpt>
      <trkpt lat="43.83933" lon="6.54493">
        <ele>849</ele>
        <time>2021-08-13T20:24:40.871Z</time>
      </trkpt>
      <trkpt lat="43.83952" lon="6.54482">
        <ele>847</ele>
        <time>2021-08-13T20:24:43.187Z</time>
      </trkpt>
      <trkpt lat="43.83973" lon="6.54478">
        <ele>847</ele>
        <time>2021-08-13T20:24:49.130Z</time>
      </trkpt>
      <trkpt lat="43.84004" lon="6.54478">
        <ele>848</ele>
        <time>2021-08-13T20:25:01.467Z</time>
      </trkpt>
      <trkpt lat="43.84035" lon="6.54492">
        <ele>848</ele>
        <time>2021-08-13T20:25:10.609Z</time>
      </trkpt>
      <trkpt lat="43.84087" lon="6.5453">
        <ele>851</ele>
        <time>2021-08-13T20:25:39.625Z</time>
      </trkpt>
      <trkpt lat="43.84101" lon="6.54538">
        <ele>850</ele>
        <time>2021-08-13T20:25:41.193Z</time>
      </trkpt>
      <trkpt lat="43.84116" lon="6.54544">
        <ele>847</ele>
        <time>2021-08-13T20:25:42.949Z</time>
      </trkpt>
      <trkpt lat="43.84138" lon="6.54547">
        <ele>842</ele>
        <time>2021-08-13T20:25:45.435Z</time>
      </trkpt>
      <trkpt lat="43.84148" lon="6.54551">
        <ele>840</ele>
        <time>2021-08-13T20:25:46.606Z</time>
      </trkpt>
      <trkpt lat="43.84156" lon="6.54557">
        <ele>839</ele>
        <time>2021-08-13T20:25:47.629Z</time>
      </trkpt>
      <trkpt lat="43.84162" lon="6.54564">
        <ele>839</ele>
        <time>2021-08-13T20:25:49.828Z</time>
      </trkpt>
      <trkpt lat="43.84171" lon="6.54583">
        <ele>840</ele>
        <time>2021-08-13T20:25:58.490Z</time>
      </trkpt>
      <trkpt lat="43.84182" lon="6.54628">
        <ele>843</ele>
        <time>2021-08-13T20:26:20.772Z</time>
      </trkpt>
      <trkpt lat="43.84189" lon="6.54643">
        <ele>843</ele>
        <time>2021-08-13T20:26:24.385Z</time>
      </trkpt>
      <trkpt lat="43.84208" lon="6.5467">
        <ele>841</ele>
        <time>2021-08-13T20:26:27.446Z</time>
      </trkpt>
      <trkpt lat="43.84218" lon="6.54689">
        <ele>841</ele>
        <time>2021-08-13T20:26:32.202Z</time>
      </trkpt>
      <trkpt lat="43.84226" lon="6.54717">
        <ele>842</ele>
        <time>2021-08-13T20:26:42.582Z</time>
      </trkpt>
      <trkpt lat="43.8423" lon="6.54722">
        <ele>842</ele>
        <time>2021-08-13T20:26:44.092Z</time>
      </trkpt>
      <trkpt lat="43.84238" lon="6.54726">
        <ele>840</ele>
        <time>2021-08-13T20:26:45.049Z</time>
      </trkpt>
      <trkpt lat="43.84244" lon="6.54724">
        <ele>839</ele>
        <time>2021-08-13T20:26:45.743Z</time>
      </trkpt>
      <trkpt lat="43.84251" lon="6.5472">
        <ele>837</ele>
        <time>2021-08-13T20:26:46.595Z</time>
      </trkpt>
      <trkpt lat="43.84254" lon="6.54713">
        <ele>837</ele>
        <time>2021-08-13T20:26:48.241Z</time>
      </trkpt>
      <trkpt lat="43.84274" lon="6.5459">
        <ele>825</ele>
        <time>2021-08-13T20:26:58.471Z</time>
      </trkpt>
      <trkpt lat="43.84281" lon="6.5457">
        <ele>823</ele>
        <time>2021-08-13T20:27:00.274Z</time>
      </trkpt>
      <trkpt lat="43.84302" lon="6.54525">
        <ele>819</ele>
        <time>2021-08-13T20:27:04.623Z</time>
      </trkpt>
      <trkpt lat="43.84331" lon="6.5449">
        <ele>817</ele>
        <time>2021-08-13T20:27:09.080Z</time>
      </trkpt>
      <trkpt lat="43.84337" lon="6.5448">
        <ele>818</ele>
        <time>2021-08-13T20:27:16.390Z</time>
      </trkpt>
      <trkpt lat="43.84342" lon="6.54456">
        <ele>816</ele>
        <time>2021-08-13T20:27:18.416Z</time>
      </trkpt>
      <trkpt lat="43.84348" lon="6.54404">
        <ele>811</ele>
        <time>2021-08-13T20:27:22.689Z</time>
      </trkpt>
      <trkpt lat="43.84349" lon="6.54365">
        <ele>807</ele>
        <time>2021-08-13T20:27:25.855Z</time>
      </trkpt>
      <trkpt lat="43.84352" lon="6.54351">
        <ele>806</ele>
        <time>2021-08-13T20:27:27.039Z</time>
      </trkpt>
      <trkpt lat="43.84357" lon="6.54339">
        <ele>806</ele>
        <time>2021-08-13T20:27:29.842Z</time>
      </trkpt>
      <trkpt lat="43.84371" lon="6.54316">
        <ele>807</ele>
        <time>2021-08-13T20:27:40.217Z</time>
      </trkpt>
      <trkpt lat="43.84381" lon="6.54294">
        <ele>806</ele>
        <time>2021-08-13T20:27:42.367Z</time>
      </trkpt>
      <trkpt lat="43.84403" lon="6.5422">
        <ele>802</ele>
        <time>2021-08-13T20:27:48.861Z</time>
      </trkpt>
      <trkpt lat="43.84407" lon="6.54204">
        <ele>802</ele>
        <time>2021-08-13T20:27:52.285Z</time>
      </trkpt>
      <trkpt lat="43.84409" lon="6.54186">
        <ele>801</ele>
        <time>2021-08-13T20:27:53.763Z</time>
      </trkpt>
      <trkpt lat="43.84408" lon="6.54168">
        <ele>799</ele>
        <time>2021-08-13T20:27:55.227Z</time>
      </trkpt>
      <trkpt lat="43.84404" lon="6.5415">
        <ele>797</ele>
        <time>2021-08-13T20:27:56.755Z</time>
      </trkpt>
      <trkpt lat="43.84392" lon="6.54106">
        <ele>792</ele>
        <time>2021-08-13T20:28:00.572Z</time>
      </trkpt>
      <trkpt lat="43.8439" lon="6.54092">
        <ele>791</ele>
        <time>2021-08-13T20:28:01.729Z</time>
      </trkpt>
      <trkpt lat="43.84387" lon="6.54014">
        <ele>785</ele>
        <time>2021-08-13T20:28:08.066Z</time>
      </trkpt>
      <trkpt lat="43.84381" lon="6.53983">
        <ele>782</ele>
        <time>2021-08-13T20:28:10.670Z</time>
      </trkpt>
      <trkpt lat="43.84365" lon="6.53952">
        <ele>781</ele>
        <time>2021-08-13T20:28:14.348Z</time>
      </trkpt>
      <trkpt lat="43.84362" lon="6.53946">
        <ele>781</ele>
        <time>2021-08-13T20:28:15.824Z</time>
      </trkpt>
      <trkpt lat="43.84355" lon="6.53938">
        <ele>781</ele>
        <time>2021-08-13T20:28:18.368Z</time>
      </trkpt>
      <trkpt lat="43.84345" lon="6.53929">
        <ele>782</ele>
        <time>2021-08-13T20:28:25.881Z</time>
      </trkpt>
      <trkpt lat="43.84308" lon="6.53907">
        <ele>781</ele>
        <time>2021-08-13T20:28:31.955Z</time>
      </trkpt>
      <trkpt lat="43.84297" lon="6.53903">
        <ele>779</ele>
        <time>2021-08-13T20:28:33.234Z</time>
      </trkpt>
      <trkpt lat="43.84285" lon="6.53901">
        <ele>778</ele>
        <time>2021-08-13T20:28:34.594Z</time>
      </trkpt>
      <trkpt lat="43.84276" lon="6.53903">
        <ele>777</ele>
        <time>2021-08-13T20:28:35.619Z</time>
      </trkpt>
      <trkpt lat="43.84267" lon="6.53908">
        <ele>776</ele>
        <time>2021-08-13T20:28:36.710Z</time>
      </trkpt>
      <trkpt lat="43.84258" lon="6.53916">
        <ele>775</ele>
        <time>2021-08-13T20:28:37.912Z</time>
      </trkpt>
      <trkpt lat="43.8425" lon="6.53926">
        <ele>773</ele>
        <time>2021-08-13T20:28:39.124Z</time>
      </trkpt>
      <trkpt lat="43.84241" lon="6.53941">
        <ele>771</ele>
        <time>2021-08-13T20:28:40.707Z</time>
      </trkpt>
      <trkpt lat="43.84235" lon="6.53945">
        <ele>770</ele>
        <time>2021-08-13T20:28:41.456Z</time>
      </trkpt>
      <trkpt lat="43.8423" lon="6.53948">
        <ele>769</ele>
        <time>2021-08-13T20:28:42.068Z</time>
      </trkpt>
      <trkpt lat="43.84226" lon="6.53949">
        <ele>768</ele>
        <time>2021-08-13T20:28:42.526Z</time>
      </trkpt>
      <trkpt lat="43.84218" lon="6.53946">
        <ele>768</ele>
        <time>2021-08-13T20:28:44.849Z</time>
      </trkpt>
      <trkpt lat="43.84213" lon="6.5394">
        <ele>767</ele>
        <time>2021-08-13T20:28:45.593Z</time>
      </trkpt>
      <trkpt lat="43.84209" lon="6.53928">
        <ele>767</ele>
        <time>2021-08-13T20:28:48.266Z</time>
      </trkpt>
      <trkpt lat="43.84202" lon="6.53824">
        <ele>763</ele>
        <time>2021-08-13T20:28:56.920Z</time>
      </trkpt>
      <trkpt lat="43.84202" lon="6.53807">
        <ele>763</ele>
        <time>2021-08-13T20:29:00.358Z</time>
      </trkpt>
      <trkpt lat="43.84206" lon="6.53786">
        <ele>763</ele>
        <time>2021-08-13T20:29:04.750Z</time>
      </trkpt>
      <trkpt lat="43.84248" lon="6.53625">
        <ele>755</ele>
        <time>2021-08-13T20:29:17.659Z</time>
      </trkpt>
      <trkpt lat="43.84254" lon="6.53606">
        <ele>753</ele>
        <time>2021-08-13T20:29:19.342Z</time>
      </trkpt>
      <trkpt lat="43.84261" lon="6.5359">
        <ele>752</ele>
        <time>2021-08-13T20:29:20.860Z</time>
      </trkpt>
      <trkpt lat="43.84271" lon="6.53574">
        <ele>752</ele>
        <time>2021-08-13T20:29:25.141Z</time>
      </trkpt>
      <trkpt lat="43.84366" lon="6.53442">
        <ele>740</ele>
        <time>2021-08-13T20:29:40.270Z</time>
      </trkpt>
      <trkpt lat="43.84371" lon="6.53426">
        <ele>738</ele>
        <time>2021-08-13T20:29:41.685Z</time>
      </trkpt>
      <trkpt lat="43.84373" lon="6.53419">
        <ele>738</ele>
        <time>2021-08-13T20:29:43.207Z</time>
      </trkpt>
      <trkpt lat="43.84374" lon="6.53403">
        <ele>737</ele>
        <time>2021-08-13T20:29:44.510Z</time>
      </trkpt>
      <trkpt lat="43.84371" lon="6.53384">
        <ele>737</ele>
        <time>2021-08-13T20:29:48.443Z</time>
      </trkpt>
      <trkpt lat="43.84358" lon="6.5332">
        <ele>737</ele>
        <time>2021-08-13T20:30:01.889Z</time>
      </trkpt>
      <trkpt lat="43.84341" lon="6.53257">
        <ele>739</ele>
        <time>2021-08-13T20:30:23.745Z</time>
      </trkpt>
      <trkpt lat="43.84336" lon="6.53235">
        <ele>739</ele>
        <time>2021-08-13T20:30:28.409Z</time>
      </trkpt>
      <trkpt lat="43.84329" lon="6.53208">
        <ele>738</ele>
        <time>2021-08-13T20:30:30.886Z</time>
      </trkpt>
      <trkpt lat="43.84327" lon="6.53201">
        <ele>738</ele>
        <time>2021-08-13T20:30:32.409Z</time>
      </trkpt>
      <trkpt lat="43.8431" lon="6.5313">
        <ele>735</ele>
        <time>2021-08-13T20:30:38.478Z</time>
      </trkpt>
      <trkpt lat="43.84252" lon="6.52896">
        <ele>731</ele>
        <time>2021-08-13T20:31:06.149Z</time>
      </trkpt>
      <trkpt lat="43.84216" lon="6.52757">
        <ele>732</ele>
        <time>2021-08-13T20:31:38.826Z</time>
      </trkpt>
      <trkpt lat="43.84212" lon="6.52744">
        <ele>733</ele>
        <time>2021-08-13T20:31:46.124Z</time>
      </trkpt>
      <trkpt lat="43.84203" lon="6.52696">
        <ele>734</ele>
        <time>2021-08-13T20:31:59.606Z</time>
      </trkpt>
      <trkpt lat="43.84201" lon="6.52673">
        <ele>735</ele>
        <time>2021-08-13T20:32:08.363Z</time>
      </trkpt>
      <trkpt lat="43.84203" lon="6.5265">
        <ele>737</ele>
        <time>2021-08-13T20:32:23.440Z</time>
      </trkpt>
      <trkpt lat="43.84205" lon="6.52633">
        <ele>739</ele>
        <time>2021-08-13T20:32:36.875Z</time>
      </trkpt>
      <trkpt lat="43.84207" lon="6.5262">
        <ele>740</ele>
        <time>2021-08-13T20:32:44.172Z</time>
      </trkpt>
      <trkpt lat="43.84218" lon="6.52585">
        <ele>742</ele>
        <time>2021-08-13T20:33:00.023Z</time>
      </trkpt>
      <trkpt lat="43.84247" lon="6.52517">
        <ele>747</ele>
        <time>2021-08-13T20:33:37.138Z</time>
      </trkpt>
      <trkpt lat="43.84254" lon="6.52498">
        <ele>748</ele>
        <time>2021-08-13T20:33:45.504Z</time>
      </trkpt>
      <trkpt lat="43.84277" lon="6.52408">
        <ele>756</ele>
        <time>2021-08-13T20:34:45.108Z</time>
      </trkpt>
      <trkpt lat="43.84326" lon="6.52233">
        <ele>750</ele>
        <time>2021-08-13T20:35:01.906Z</time>
      </trkpt>
      <trkpt lat="43.84345" lon="6.52186">
        <ele>754</ele>
        <time>2021-08-13T20:35:31.074Z</time>
      </trkpt>
      <trkpt lat="43.84402" lon="6.52086">
        <ele>749</ele>
        <time>2021-08-13T20:35:41.519Z</time>
      </trkpt>
      <trkpt lat="43.84421" lon="6.52042">
        <ele>747</ele>
        <time>2021-08-13T20:35:45.733Z</time>
      </trkpt>
      <trkpt lat="43.8447" lon="6.51851">
        <ele>752</ele>
        <time>2021-08-13T20:36:45.426Z</time>
      </trkpt>
      <trkpt lat="43.84482" lon="6.5181">
        <ele>753</ele>
        <time>2021-08-13T20:36:57.976Z</time>
      </trkpt>
      <trkpt lat="43.84487" lon="6.51794">
        <ele>754</ele>
        <time>2021-08-13T20:37:05.620Z</time>
      </trkpt>
      <trkpt lat="43.84503" lon="6.51746">
        <ele>756</ele>
        <time>2021-08-13T20:37:24.622Z</time>
      </trkpt>
      <trkpt lat="43.84505" lon="6.51736">
        <ele>756</ele>
        <time>2021-08-13T20:37:26.720Z</time>
      </trkpt>
      <trkpt lat="43.84509" lon="6.51706">
        <ele>753</ele>
        <time>2021-08-13T20:37:29.195Z</time>
      </trkpt>
      <trkpt lat="43.84511" lon="6.51684">
        <ele>752</ele>
        <time>2021-08-13T20:37:30.897Z</time>
      </trkpt>
      <trkpt lat="43.84513" lon="6.51649">
        <ele>748</ele>
        <time>2021-08-13T20:37:33.745Z</time>
      </trkpt>
      <trkpt lat="43.84513" lon="6.51629">
        <ele>746</ele>
        <time>2021-08-13T20:37:35.367Z</time>
      </trkpt>
      <trkpt lat="43.84513" lon="6.51606">
        <ele>743</ele>
        <time>2021-08-13T20:37:37.233Z</time>
      </trkpt>
      <trkpt lat="43.84512" lon="6.51591">
        <ele>742</ele>
        <time>2021-08-13T20:37:38.455Z</time>
      </trkpt>
      <trkpt lat="43.8451" lon="6.5156">
        <ele>739</ele>
        <time>2021-08-13T20:37:40.980Z</time>
      </trkpt>
      <trkpt lat="43.8451" lon="6.51507">
        <ele>733</ele>
        <time>2021-08-13T20:37:45.280Z</time>
      </trkpt>
      <trkpt lat="43.8451" lon="6.51503">
        <ele>732</ele>
        <time>2021-08-13T20:37:45.605Z</time>
      </trkpt>
      <trkpt lat="43.84512" lon="6.51493">
        <ele>731</ele>
        <time>2021-08-13T20:37:46.446Z</time>
      </trkpt>
      <trkpt lat="43.84514" lon="6.51487">
        <ele>731</ele>
        <time>2021-08-13T20:37:47.783Z</time>
      </trkpt>
      <trkpt lat="43.84517" lon="6.51477">
        <ele>730</ele>
        <time>2021-08-13T20:37:48.662Z</time>
      </trkpt>
      <trkpt lat="43.84529" lon="6.51458">
        <ele>728</ele>
        <time>2021-08-13T20:37:50.711Z</time>
      </trkpt>
      <trkpt lat="43.84536" lon="6.5145">
        <ele>728</ele>
        <time>2021-08-13T20:37:53.254Z</time>
      </trkpt>
      <trkpt lat="43.84541" lon="6.51445">
        <ele>727</ele>
        <time>2021-08-13T20:37:53.948Z</time>
      </trkpt>
      <trkpt lat="43.84571" lon="6.5141">
        <ele>725</ele>
        <time>2021-08-13T20:37:58.532Z</time>
      </trkpt>
      <trkpt lat="43.84574" lon="6.51406">
        <ele>724</ele>
        <time>2021-08-13T20:37:59.000Z</time>
      </trkpt>
      <trkpt lat="43.84575" lon="6.51403">
        <ele>724</ele>
        <time>2021-08-13T20:37:59.668Z</time>
      </trkpt>
      <trkpt lat="43.84577" lon="6.51397">
        <ele>724</ele>
        <time>2021-08-13T20:38:01.005Z</time>
      </trkpt>
      <trkpt lat="43.84579" lon="6.51389">
        <ele>724</ele>
        <time>2021-08-13T20:38:02.717Z</time>
      </trkpt>
      <trkpt lat="43.8458" lon="6.51379">
        <ele>724</ele>
        <time>2021-08-13T20:38:04.758Z</time>
      </trkpt>
      <trkpt lat="43.84585" lon="6.51357">
        <ele>723</ele>
        <time>2021-08-13T20:38:06.562Z</time>
      </trkpt>
      <trkpt lat="43.84587" lon="6.51341">
        <ele>723</ele>
        <time>2021-08-13T20:38:09.846Z</time>
      </trkpt>
      <trkpt lat="43.8459" lon="6.51325">
        <ele>724</ele>
        <time>2021-08-13T20:38:17.359Z</time>
      </trkpt>
      <trkpt lat="43.84591" lon="6.5132">
        <ele>724</ele>
        <time>2021-08-13T20:38:18.408Z</time>
      </trkpt>
      <trkpt lat="43.84599" lon="6.51277">
        <ele>725</ele>
        <time>2021-08-13T20:38:30.985Z</time>
      </trkpt>
      <trkpt lat="43.84604" lon="6.51269">
        <ele>725</ele>
        <time>2021-08-13T20:38:33.126Z</time>
      </trkpt>
      <trkpt lat="43.84611" lon="6.51261">
        <ele>725</ele>
        <time>2021-08-13T20:38:35.669Z</time>
      </trkpt>
      <trkpt lat="43.84613" lon="6.5126">
        <ele>726</ele>
        <time>2021-08-13T20:38:37.969Z</time>
      </trkpt>
      <trkpt lat="43.84615" lon="6.51259">
        <ele>726</ele>
        <time>2021-08-13T20:38:38.565Z</time>
      </trkpt>
      <trkpt lat="43.84616" lon="6.51257">
        <ele>726</ele>
        <time>2021-08-13T20:38:39.057Z</time>
      </trkpt>
      <trkpt lat="43.84621" lon="6.51257">
        <ele>726</ele>
        <time>2021-08-13T20:38:40.459Z</time>
      </trkpt>
      <trkpt lat="43.84642" lon="6.51254">
        <ele>726</ele>
        <time>2021-08-13T20:38:46.378Z</time>
      </trkpt>
      <trkpt lat="43.84649" lon="6.51255">
        <ele>727</ele>
        <time>2021-08-13T20:38:53.989Z</time>
      </trkpt>
      <trkpt lat="43.84656" lon="6.51256">
        <ele>727</ele>
        <time>2021-08-13T20:38:55.962Z</time>
      </trkpt>
      <trkpt lat="43.84661" lon="6.51256">
        <ele>727</ele>
        <time>2021-08-13T20:38:57.364Z</time>
      </trkpt>
      <trkpt lat="43.84665" lon="6.51254">
        <ele>727</ele>
        <time>2021-08-13T20:38:58.556Z</time>
      </trkpt>
      <trkpt lat="43.84671" lon="6.51251">
        <ele>727</ele>
        <time>2021-08-13T20:39:00.344Z</time>
      </trkpt>
      <trkpt lat="43.84676" lon="6.51247">
        <ele>728</ele>
        <time>2021-08-13T20:39:06.587Z</time>
      </trkpt>
      <trkpt lat="43.84678" lon="6.51245">
        <ele>728</ele>
        <time>2021-08-13T20:39:07.279Z</time>
      </trkpt>
      <trkpt lat="43.84682" lon="6.51239">
        <ele>728</ele>
        <time>2021-08-13T20:39:08.931Z</time>
      </trkpt>
      <trkpt lat="43.84697" lon="6.51222">
        <ele>728</ele>
        <time>2021-08-13T20:39:14.363Z</time>
      </trkpt>
      <trkpt lat="43.84717" lon="6.51207">
        <ele>729</ele>
        <time>2021-08-13T20:39:25.039Z</time>
      </trkpt>
      <trkpt lat="43.8472" lon="6.51206">
        <ele>729</ele>
        <time>2021-08-13T20:39:25.904Z</time>
      </trkpt>
      <trkpt lat="43.84726" lon="6.51204">
        <ele>729</ele>
        <time>2021-08-13T20:39:27.634Z</time>
      </trkpt>
      <trkpt lat="43.8476" lon="6.51199">
        <ele>732</ele>
        <time>2021-08-13T20:39:49.904Z</time>
      </trkpt>
      <trkpt lat="43.84767" lon="6.51198">
        <ele>733</ele>
        <time>2021-08-13T20:39:57.515Z</time>
      </trkpt>
      <trkpt lat="43.8477" lon="6.51197">
        <ele>734</ele>
        <time>2021-08-13T20:40:00.852Z</time>
      </trkpt>
      <trkpt lat="43.84772" lon="6.51194">
        <ele>734</ele>
        <time>2021-08-13T20:40:01.678Z</time>
      </trkpt>
      <trkpt lat="43.84773" lon="6.51187">
        <ele>734</ele>
        <time>2021-08-13T20:40:03.121Z</time>
      </trkpt>
      <trkpt lat="43.84775" lon="6.51181">
        <ele>733</ele>
        <time>2021-08-13T20:40:03.657Z</time>
      </trkpt>
      <trkpt lat="43.8479" lon="6.51133">
        <ele>733</ele>
        <time>2021-08-13T20:40:14.235Z</time>
      </trkpt>
      <trkpt lat="43.84797" lon="6.51111">
        <ele>732</ele>
        <time>2021-08-13T20:40:16.153Z</time>
      </trkpt>
      <trkpt lat="43.84801" lon="6.51096">
        <ele>732</ele>
        <time>2021-08-13T20:40:19.387Z</time>
      </trkpt>
      <trkpt lat="43.84819" lon="6.51061">
        <ele>732</ele>
        <time>2021-08-13T20:40:28.080Z</time>
      </trkpt>
      <trkpt lat="43.84824" lon="6.5105">
        <ele>732</ele>
        <time>2021-08-13T20:40:30.709Z</time>
      </trkpt>
      <trkpt lat="43.84869" lon="6.50962">
        <ele>737</ele>
        <time>2021-08-13T20:41:12.785Z</time>
      </trkpt>
      <trkpt lat="43.84882" lon="6.50937">
        <ele>736</ele>
        <time>2021-08-13T20:41:15.526Z</time>
      </trkpt>
      <trkpt lat="43.84894" lon="6.50923">
        <ele>737</ele>
        <time>2021-08-13T20:41:23.977Z</time>
      </trkpt>
      <trkpt lat="43.84907" lon="6.50912">
        <ele>737</ele>
        <time>2021-08-13T20:41:28.247Z</time>
      </trkpt>
      <trkpt lat="43.84929" lon="6.509">
        <ele>739</ele>
        <time>2021-08-13T20:41:43.235Z</time>
      </trkpt>
      <trkpt lat="43.84938" lon="6.50894">
        <ele>740</ele>
        <time>2021-08-13T20:41:50.526Z</time>
      </trkpt>
      <trkpt lat="43.85019" lon="6.50852">
        <ele>744</ele>
        <time>2021-08-13T20:42:31.908Z</time>
      </trkpt>
      <trkpt lat="43.85026" lon="6.50848">
        <ele>744</ele>
        <time>2021-08-13T20:42:34.031Z</time>
      </trkpt>
      <trkpt lat="43.85062" lon="6.50829">
        <ele>744</ele>
        <time>2021-08-13T20:42:44.831Z</time>
      </trkpt>
      <trkpt lat="43.85071" lon="6.50824">
        <ele>745</ele>
        <time>2021-08-13T20:42:52.124Z</time>
      </trkpt>
      <trkpt lat="43.85095" lon="6.50812">
        <ele>746</ele>
        <time>2021-08-13T20:43:03.284Z</time>
      </trkpt>
      <trkpt lat="43.85108" lon="6.50806">
        <ele>746</ele>
        <time>2021-08-13T20:43:07.126Z</time>
      </trkpt>
      <trkpt lat="43.85115" lon="6.50803">
        <ele>746</ele>
        <time>2021-08-13T20:43:09.180Z</time>
      </trkpt>
      <trkpt lat="43.8513" lon="6.50802">
        <ele>746</ele>
        <time>2021-08-13T20:43:13.391Z</time>
      </trkpt>
      <trkpt lat="43.85138" lon="6.50804">
        <ele>746</ele>
        <time>2021-08-13T20:43:15.670Z</time>
      </trkpt>
      <trkpt lat="43.85143" lon="6.50807">
        <ele>747</ele>
        <time>2021-08-13T20:43:21.562Z</time>
      </trkpt>
      <trkpt lat="43.85146" lon="6.5081">
        <ele>747</ele>
        <time>2021-08-13T20:43:22.599Z</time>
      </trkpt>
      <trkpt lat="43.85148" lon="6.50811">
        <ele>747</ele>
        <time>2021-08-13T20:43:23.195Z</time>
      </trkpt>
      <trkpt lat="43.85152" lon="6.50812">
        <ele>747</ele>
        <time>2021-08-13T20:43:24.335Z</time>
      </trkpt>
      <trkpt lat="43.85158" lon="6.50811">
        <ele>747</ele>
        <time>2021-08-13T20:43:26.029Z</time>
      </trkpt>
      <trkpt lat="43.85161" lon="6.50809">
        <ele>747</ele>
        <time>2021-08-13T20:43:26.963Z</time>
      </trkpt>
      <trkpt lat="43.8517" lon="6.50811">
        <ele>747</ele>
        <time>2021-08-13T20:43:29.518Z</time>
      </trkpt>
      <trkpt lat="43.85181" lon="6.50819">
        <ele>747</ele>
        <time>2021-08-13T20:43:33.001Z</time>
      </trkpt>
    </trkseg>
  </trk>
</gpx>